<?xml version="1.0" encoding="UTF-8" standalone="no" ?>
<gpx xmlns="http://www.topografix.com/GPX/1/1" xmlns:xsi="http://www.w3.org/2001/XMLSchema-instance" xsi:schemaLocation="http://www.topografix.com/GPX/1/1 http://www.topografix.com/GPX/1/1/gpx.xsd" version="1.1" creator="VisuGPX - https://www.visugpx.com">
  <metadata>
    <name>Saint Guilhem le Désert - Puech Bouissou - grotte ermite</name>
    <desc><![CDATA[2016-02 - Saint Guilhem le Désert - ermitage Lieu Plaisant - Puech Bouissou - grotte ermite

[b]album[/b] : [url]https://goo.gl/photos/NiqoJ6QCFDgMUjLV7[/url]
[img]https://3.bp.blogspot.com/-_wUj6t6Eva0/WNFJ3yBTdkI/AAAAAAAAQ8Q/Z3MCbMvQOyIUdFyFzfMMz8t2E6RKFKVvACLcB/s1600/2016-02_Saint-Guilhem_i.JPG[/img]
[b]Idées de randonnées dans la même région[/b]
Parcours : [url]https://www.visugpx.com/membres/24856/causses/saint-guilhem/[/url]
Photos : [url]https://jcvertygo.blogspot.com/p/saint-guilhem.html[/url]]]></desc>
  </metadata>
  <trk>
    <name><![CDATA[Saint Guilhem le Désert - Puech Bouissou - grotte ermite_1]]></name>
    <trkseg>
      <trkpt lat="43.73435" lon="3.54758">
        <ele>114.6</ele>
        <time>2016-02-15T09:32:39Z</time>
      </trkpt>
      <trkpt lat="43.73435" lon="3.54754">
        <ele>114.6</ele>
        <time>2016-02-15T09:32:44Z</time>
      </trkpt>
      <trkpt lat="43.73434" lon="3.5473">
        <ele>114.1363425825</ele>
        <time>2016-02-15T09:33:13Z</time>
      </trkpt>
      <trkpt lat="43.73432" lon="3.5473">
        <ele>114.1363425825</ele>
        <time>2016-02-15T09:33:17Z</time>
      </trkpt>
      <trkpt lat="43.73409" lon="3.54807">
        <ele>114.30843956675</ele>
        <time>2016-02-15T09:35:44Z</time>
      </trkpt>
      <trkpt lat="43.73395" lon="3.54818">
        <ele>114.68066941765</ele>
        <time>2016-02-15T09:35:51Z</time>
      </trkpt>
      <trkpt lat="43.73388" lon="3.54821">
        <ele>114.68066941765</ele>
        <time>2016-02-15T09:35:54Z</time>
      </trkpt>
      <trkpt lat="43.73386" lon="3.54824">
        <ele>115.01066152844</ele>
        <time>2016-02-15T09:35:59Z</time>
      </trkpt>
      <trkpt lat="43.73378" lon="3.54844">
        <ele>115.11733173566</ele>
        <time>2016-02-15T09:36:24Z</time>
      </trkpt>
      <trkpt lat="43.73379" lon="3.5485">
        <ele>115.11733173566</ele>
        <time>2016-02-15T09:36:29Z</time>
      </trkpt>
      <trkpt lat="43.73388" lon="3.54857">
        <ele>115.14327407427</ele>
        <time>2016-02-15T09:36:45Z</time>
      </trkpt>
      <trkpt lat="43.73406" lon="3.54873">
        <ele>115.04329740204</ele>
        <time>2016-02-15T09:37:00Z</time>
      </trkpt>
      <trkpt lat="43.73577" lon="3.54853">
        <ele>114.31959824823</ele>
        <time>2016-02-15T09:40:24Z</time>
      </trkpt>
      <trkpt lat="43.73589" lon="3.54847">
        <ele>114.43695016405</ele>
        <time>2016-02-15T09:40:24Z</time>
      </trkpt>
      <trkpt lat="43.73592" lon="3.54848">
        <ele>114.43695016405</ele>
        <time>2016-02-15T09:41:04Z</time>
      </trkpt>
      <trkpt lat="43.7366" lon="3.54918">
        <ele>117.50813487044</ele>
        <time>2016-02-15T09:44:16Z</time>
      </trkpt>
      <trkpt lat="43.73679" lon="3.54912">
        <ele>120.35988640176</ele>
        <time>2016-02-15T09:44:29Z</time>
      </trkpt>
      <trkpt lat="43.73692" lon="3.54907">
        <ele>122.97018475208</ele>
        <time>2016-02-15T09:44:49Z</time>
      </trkpt>
      <trkpt lat="43.737" lon="3.54902">
        <ele>122.97018475208</ele>
        <time>2016-02-15T09:44:51Z</time>
      </trkpt>
      <trkpt lat="43.73739" lon="3.54854">
        <ele>127.39904054568</ele>
        <time>2016-02-15T09:45:50Z</time>
      </trkpt>
      <trkpt lat="43.73773" lon="3.54823">
        <ele>133.61353471117</ele>
        <time>2016-02-15T09:47:07Z</time>
      </trkpt>
      <trkpt lat="43.73783" lon="3.54751">
        <ele>140.60816027564</ele>
        <time>2016-02-15T09:48:27Z</time>
      </trkpt>
      <trkpt lat="43.73783" lon="3.54749">
        <ele>140.60816027564</ele>
        <time>2016-02-15T09:48:31Z</time>
      </trkpt>
      <trkpt lat="43.73786" lon="3.54753">
        <ele>140.60816027564</ele>
        <time>2016-02-15T09:48:50Z</time>
      </trkpt>
      <trkpt lat="43.73795" lon="3.54772">
        <ele>147.13494297178</ele>
        <time>2016-02-15T09:49:07Z</time>
      </trkpt>
      <trkpt lat="43.73797" lon="3.54781">
        <ele>147.13494297178</ele>
        <time>2016-02-15T09:49:07Z</time>
      </trkpt>
      <trkpt lat="43.73798" lon="3.54798">
        <ele>153.2509006682</ele>
        <time>2016-02-15T09:49:32Z</time>
      </trkpt>
      <trkpt lat="43.73798" lon="3.54803">
        <ele>153.2509006682</ele>
        <time>2016-02-15T09:49:32Z</time>
      </trkpt>
      <trkpt lat="43.73793" lon="3.54827">
        <ele>159.11692602297</ele>
        <time>2016-02-15T09:49:57Z</time>
      </trkpt>
      <trkpt lat="43.73793" lon="3.54828">
        <ele>159.11692602297</ele>
        <time>2016-02-15T09:50:19Z</time>
      </trkpt>
      <trkpt lat="43.73784" lon="3.54853">
        <ele>164.42201827746</ele>
        <time>2016-02-15T09:50:20Z</time>
      </trkpt>
      <trkpt lat="43.73784" lon="3.54854">
        <ele>164.42201827746</ele>
        <time>2016-02-15T09:50:22Z</time>
      </trkpt>
      <trkpt lat="43.73784" lon="3.54856">
        <ele>164.42201827746</ele>
        <time>2016-02-15T09:50:22Z</time>
      </trkpt>
      <trkpt lat="43.73782" lon="3.54858">
        <ele>164.42201827746</ele>
        <time>2016-02-15T09:50:24Z</time>
      </trkpt>
      <trkpt lat="43.73779" lon="3.54879">
        <ele>169.40570428731</ele>
        <time>2016-02-15T09:50:47Z</time>
      </trkpt>
      <trkpt lat="43.73778" lon="3.5489">
        <ele>169.40570428731</ele>
        <time>2016-02-15T09:50:47Z</time>
      </trkpt>
      <trkpt lat="43.73779" lon="3.54914">
        <ele>173.94256013194</ele>
        <time>2016-02-15T09:51:16Z</time>
      </trkpt>
      <trkpt lat="43.73783" lon="3.54912">
        <ele>173.94256013194</ele>
        <time>2016-02-15T09:51:16Z</time>
      </trkpt>
      <trkpt lat="43.73801" lon="3.54881">
        <ele>178.55128999472</ele>
        <time>2016-02-15T09:51:53Z</time>
      </trkpt>
      <trkpt lat="43.7381" lon="3.54903">
        <ele>183.28035843802</ele>
        <time>2016-02-15T09:52:24Z</time>
      </trkpt>
      <trkpt lat="43.73867" lon="3.54822">
        <ele>189.70866270902</ele>
        <time>2016-02-15T09:54:09Z</time>
      </trkpt>
      <trkpt lat="43.7387" lon="3.54812">
        <ele>189.70866270902</ele>
        <time>2016-02-15T09:54:11Z</time>
      </trkpt>
      <trkpt lat="43.73943" lon="3.5469">
        <ele>198.87092057199</ele>
        <time>2016-02-15T09:56:24Z</time>
      </trkpt>
      <trkpt lat="43.73948" lon="3.54683">
        <ele>198.87092057199</ele>
        <time>2016-02-15T09:56:41Z</time>
      </trkpt>
      <trkpt lat="43.73953" lon="3.54674">
        <ele>207.40752454836</ele>
        <time>2016-02-15T09:56:41Z</time>
      </trkpt>
      <trkpt lat="43.73982" lon="3.54637">
        <ele>216.04785131032</ele>
        <time>2016-02-15T09:57:32Z</time>
      </trkpt>
      <trkpt lat="43.74051" lon="3.54531">
        <ele>225.40059500707</ele>
        <time>2016-02-15T09:59:06Z</time>
      </trkpt>
      <trkpt lat="43.74052" lon="3.54521">
        <ele>225.40059500707</ele>
        <time>2016-02-15T09:59:06Z</time>
      </trkpt>
      <trkpt lat="43.74066" lon="3.54457">
        <ele>234.85156904412</ele>
        <time>2016-02-15T10:00:21Z</time>
      </trkpt>
      <trkpt lat="43.74071" lon="3.54454">
        <ele>234.85156904412</ele>
        <time>2016-02-15T10:00:21Z</time>
      </trkpt>
      <trkpt lat="43.74078" lon="3.54442">
        <ele>243.38602789716</ele>
        <time>2016-02-15T10:00:37Z</time>
      </trkpt>
      <trkpt lat="43.74083" lon="3.54433">
        <ele>243.38602789716</ele>
        <time>2016-02-15T10:00:37Z</time>
      </trkpt>
      <trkpt lat="43.7409" lon="3.5442">
        <ele>250.96484190351</ele>
        <time>2016-02-15T10:00:46Z</time>
      </trkpt>
      <trkpt lat="43.74091" lon="3.54418">
        <ele>250.96484190351</ele>
        <time>2016-02-15T10:00:55Z</time>
      </trkpt>
      <trkpt lat="43.74097" lon="3.54406">
        <ele>257.67148637309</ele>
        <time>2016-02-15T10:00:55Z</time>
      </trkpt>
      <trkpt lat="43.74113" lon="3.54352">
        <ele>263.71711920713</ele>
        <time>2016-02-15T10:02:04Z</time>
      </trkpt>
      <trkpt lat="43.74116" lon="3.5435">
        <ele>263.71711920713</ele>
        <time>2016-02-15T10:02:04Z</time>
      </trkpt>
      <trkpt lat="43.7412" lon="3.54344">
        <ele>268.96115429066</ele>
        <time>2016-02-15T10:02:09Z</time>
      </trkpt>
      <trkpt lat="43.7413" lon="3.54329">
        <ele>273.46519306736</ele>
        <time>2016-02-15T10:02:31Z</time>
      </trkpt>
      <trkpt lat="43.74133" lon="3.54323">
        <ele>273.46519306736</ele>
        <time>2016-02-15T10:02:31Z</time>
      </trkpt>
      <trkpt lat="43.74122" lon="3.54329">
        <ele>277.30017862037</ele>
        <time>2016-02-15T10:02:42Z</time>
      </trkpt>
      <trkpt lat="43.74137" lon="3.5433">
        <ele>280.58983237589</ele>
        <time>2016-02-15T10:03:17Z</time>
      </trkpt>
      <trkpt lat="43.74141" lon="3.54325">
        <ele>280.58983237589</ele>
        <time>2016-02-15T10:03:17Z</time>
      </trkpt>
      <trkpt lat="43.74153" lon="3.54345">
        <ele>283.41022300197</ele>
        <time>2016-02-15T10:03:51Z</time>
      </trkpt>
      <trkpt lat="43.74172" lon="3.54326">
        <ele>286.22111363967</ele>
        <time>2016-02-15T10:04:24Z</time>
      </trkpt>
      <trkpt lat="43.74179" lon="3.54315">
        <ele>288.62714911329</ele>
        <time>2016-02-15T10:04:45Z</time>
      </trkpt>
      <trkpt lat="43.74192" lon="3.54366">
        <ele>291.26827934934</ele>
        <time>2016-02-15T10:05:43Z</time>
      </trkpt>
      <trkpt lat="43.74193" lon="3.54367">
        <ele>291.26827934934</ele>
        <time>2016-02-15T10:05:49Z</time>
      </trkpt>
      <trkpt lat="43.74196" lon="3.5441">
        <ele>293.9948780493</ele>
        <time>2016-02-15T10:06:22Z</time>
      </trkpt>
      <trkpt lat="43.74196" lon="3.54436">
        <ele>296.32782008099</ele>
        <time>2016-02-15T10:06:48Z</time>
      </trkpt>
      <trkpt lat="43.74202" lon="3.54434">
        <ele>296.32782008099</ele>
        <time>2016-02-15T10:06:48Z</time>
      </trkpt>
      <trkpt lat="43.74205" lon="3.54427">
        <ele>298.33179918318</ele>
        <time>2016-02-15T10:07:00Z</time>
      </trkpt>
      <trkpt lat="43.74208" lon="3.54425">
        <ele>298.33179918318</ele>
        <time>2016-02-15T10:07:00Z</time>
      </trkpt>
      <trkpt lat="43.74226" lon="3.54399">
        <ele>300.50005689798</ele>
        <time>2016-02-15T10:07:31Z</time>
      </trkpt>
      <trkpt lat="43.74241" lon="3.54364">
        <ele>302.80499572095</ele>
        <time>2016-02-15T10:08:04Z</time>
      </trkpt>
      <trkpt lat="43.74242" lon="3.54357">
        <ele>302.80499572095</ele>
        <time>2016-02-15T10:08:20Z</time>
      </trkpt>
      <trkpt lat="43.74243" lon="3.54352">
        <ele>304.84544089573</ele>
        <time>2016-02-15T10:08:20Z</time>
      </trkpt>
      <trkpt lat="43.74284" lon="3.54272">
        <ele>308.22708118002</ele>
        <time>2016-02-15T10:09:49Z</time>
      </trkpt>
      <trkpt lat="43.7429" lon="3.54265">
        <ele>308.22708118002</ele>
        <time>2016-02-15T10:09:49Z</time>
      </trkpt>
      <trkpt lat="43.74295" lon="3.54258">
        <ele>311.58417851649</ele>
        <time>2016-02-15T10:10:07Z</time>
      </trkpt>
      <trkpt lat="43.74301" lon="3.54251">
        <ele>311.58417851649</ele>
        <time>2016-02-15T10:10:07Z</time>
      </trkpt>
      <trkpt lat="43.7434" lon="3.54211">
        <ele>315.73764842398</ele>
        <time>2016-02-15T10:11:07Z</time>
      </trkpt>
      <trkpt lat="43.74352" lon="3.54199">
        <ele>319.65021539244</ele>
        <time>2016-02-15T10:11:17Z</time>
      </trkpt>
      <trkpt lat="43.74366" lon="3.54196">
        <ele>323.14592143143</ele>
        <time>2016-02-15T10:11:34Z</time>
      </trkpt>
      <trkpt lat="43.74394" lon="3.54194">
        <ele>326.30562451942</ele>
        <time>2016-02-15T10:12:08Z</time>
      </trkpt>
      <trkpt lat="43.74413" lon="3.54182">
        <ele>329.11498925745</ele>
        <time>2016-02-15T10:12:32Z</time>
      </trkpt>
      <trkpt lat="43.74447" lon="3.54177">
        <ele>331.24569992899</ele>
        <time>2016-02-15T10:13:02Z</time>
      </trkpt>
      <trkpt lat="43.74459" lon="3.54173">
        <ele>332.92530919614</ele>
        <time>2016-02-15T10:13:31Z</time>
      </trkpt>
      <trkpt lat="43.74523" lon="3.54155">
        <ele>333.95870576314</ele>
        <time>2016-02-15T10:14:21Z</time>
      </trkpt>
      <trkpt lat="43.74632" lon="3.54119">
        <ele>335.14378248951</ele>
        <time>2016-02-15T10:16:18Z</time>
      </trkpt>
      <trkpt lat="43.74633" lon="3.54118">
        <ele>335.14378248951</ele>
        <time>2016-02-15T10:16:19Z</time>
      </trkpt>
      <trkpt lat="43.74666" lon="3.54125">
        <ele>335.93909960441</ele>
        <time>2016-02-15T10:16:49Z</time>
      </trkpt>
      <trkpt lat="43.74681" lon="3.54125">
        <ele>336.4465540534</ele>
        <time>2016-02-15T10:17:04Z</time>
      </trkpt>
      <trkpt lat="43.74693" lon="3.54129">
        <ele>336.58124566613</ele>
        <time>2016-02-15T10:17:26Z</time>
      </trkpt>
      <trkpt lat="43.74699" lon="3.54131">
        <ele>336.58124566613</ele>
        <time>2016-02-15T10:17:26Z</time>
      </trkpt>
      <trkpt lat="43.74754" lon="3.54345">
        <ele>334.72101888946</ele>
        <time>2016-02-15T10:21:00Z</time>
      </trkpt>
      <trkpt lat="43.74751" lon="3.5442">
        <ele>332.98682004799</ele>
        <time>2016-02-15T10:21:53Z</time>
      </trkpt>
      <trkpt lat="43.7475" lon="3.54422">
        <ele>332.98682004799</ele>
        <time>2016-02-15T10:21:55Z</time>
      </trkpt>
      <trkpt lat="43.74737" lon="3.5447">
        <ele>331.29508689828</ele>
        <time>2016-02-15T10:22:33Z</time>
      </trkpt>
      <trkpt lat="43.74708" lon="3.5455">
        <ele>330.26176341954</ele>
        <time>2016-02-15T10:23:41Z</time>
      </trkpt>
      <trkpt lat="43.74727" lon="3.54578">
        <ele>329.78724321106</ele>
        <time>2016-02-15T10:24:15Z</time>
      </trkpt>
      <trkpt lat="43.7473" lon="3.54582">
        <ele>329.78724321106</ele>
        <time>2016-02-15T10:24:19Z</time>
      </trkpt>
      <trkpt lat="43.74741" lon="3.54584">
        <ele>329.57303232667</ele>
        <time>2016-02-15T10:24:41Z</time>
      </trkpt>
      <trkpt lat="43.74755" lon="3.54577">
        <ele>329.60806110033</ele>
        <time>2016-02-15T10:24:58Z</time>
      </trkpt>
      <trkpt lat="43.74817" lon="3.54562">
        <ele>332.29324896943</ele>
        <time>2016-02-15T10:26:01Z</time>
      </trkpt>
      <trkpt lat="43.74847" lon="3.54556">
        <ele>335.91759928613</ele>
        <time>2016-02-15T10:26:36Z</time>
      </trkpt>
      <trkpt lat="43.74854" lon="3.54555">
        <ele>335.91759928613</ele>
        <time>2016-02-15T10:26:39Z</time>
      </trkpt>
      <trkpt lat="43.74881" lon="3.54576">
        <ele>340.828925233</ele>
        <time>2016-02-15T10:27:24Z</time>
      </trkpt>
      <trkpt lat="43.7489" lon="3.54587">
        <ele>344.88647847041</ele>
        <time>2016-02-15T10:27:41Z</time>
      </trkpt>
      <trkpt lat="43.74907" lon="3.54609">
        <ele>348.8225885597</ele>
        <time>2016-02-15T10:27:57Z</time>
      </trkpt>
      <trkpt lat="43.74915" lon="3.54624">
        <ele>352.20943642026</ele>
        <time>2016-02-15T10:28:15Z</time>
      </trkpt>
      <trkpt lat="43.74918" lon="3.54628">
        <ele>352.20943642026</ele>
        <time>2016-02-15T10:28:23Z</time>
      </trkpt>
      <trkpt lat="43.74932" lon="3.54645">
        <ele>355.34905685834</ele>
        <time>2016-02-15T10:28:48Z</time>
      </trkpt>
      <trkpt lat="43.74938" lon="3.54652">
        <ele>355.34905685834</ele>
        <time>2016-02-15T10:28:48Z</time>
      </trkpt>
      <trkpt lat="43.74945" lon="3.54661">
        <ele>358.2163477926</ele>
        <time>2016-02-15T10:28:59Z</time>
      </trkpt>
      <trkpt lat="43.74978" lon="3.5465">
        <ele>361.59837430176</ele>
        <time>2016-02-15T10:29:39Z</time>
      </trkpt>
      <trkpt lat="43.74982" lon="3.54643">
        <ele>361.59837430176</ele>
        <time>2016-02-15T10:29:40Z</time>
      </trkpt>
      <trkpt lat="43.75035" lon="3.54517">
        <ele>366.798551967</ele>
        <time>2016-02-15T10:31:21Z</time>
      </trkpt>
      <trkpt lat="43.75073" lon="3.54456">
        <ele>371.76705959423</ele>
        <time>2016-02-15T10:32:07Z</time>
      </trkpt>
      <trkpt lat="43.7508" lon="3.54451">
        <ele>371.76705959423</ele>
        <time>2016-02-15T10:32:25Z</time>
      </trkpt>
      <trkpt lat="43.75126" lon="3.54434">
        <ele>374.7251698664</ele>
        <time>2016-02-15T10:34:17Z</time>
      </trkpt>
      <trkpt lat="43.75129" lon="3.5444">
        <ele>374.7251698664</ele>
        <time>2016-02-15T10:34:17Z</time>
      </trkpt>
      <trkpt lat="43.75136" lon="3.54447">
        <ele>377.29394422384</ele>
        <time>2016-02-15T10:34:26Z</time>
      </trkpt>
      <trkpt lat="43.75167" lon="3.54462">
        <ele>379.57442905866</ele>
        <time>2016-02-15T10:35:42Z</time>
      </trkpt>
      <trkpt lat="43.75212" lon="3.54462">
        <ele>381.60306708507</ele>
        <time>2016-02-15T10:35:51Z</time>
      </trkpt>
      <trkpt lat="43.75262" lon="3.54417">
        <ele>383.42857651258</ele>
        <time>2016-02-15T10:37:01Z</time>
      </trkpt>
      <trkpt lat="43.75291" lon="3.54398">
        <ele>385.06768752125</ele>
        <time>2016-02-15T10:37:01Z</time>
      </trkpt>
      <trkpt lat="43.75324" lon="3.54376">
        <ele>386.60841271965</ele>
        <time>2016-02-15T10:37:48Z</time>
      </trkpt>
      <trkpt lat="43.75328" lon="3.54373">
        <ele>386.60841271965</ele>
        <time>2016-02-15T10:37:48Z</time>
      </trkpt>
      <trkpt lat="43.75355" lon="3.54343">
        <ele>387.81529332423</ele>
        <time>2016-02-15T10:38:19Z</time>
      </trkpt>
      <trkpt lat="43.75356" lon="3.54342">
        <ele>387.81529332423</ele>
        <time>2016-02-15T10:38:19Z</time>
      </trkpt>
      <trkpt lat="43.75383" lon="3.54322">
        <ele>388.19710241895</ele>
        <time>2016-02-15T10:39:17Z</time>
      </trkpt>
      <trkpt lat="43.75399" lon="3.54326">
        <ele>388.46875556557</ele>
        <time>2016-02-15T10:39:47Z</time>
      </trkpt>
      <trkpt lat="43.75405" lon="3.54326">
        <ele>388.46875556557</ele>
        <time>2016-02-15T10:39:47Z</time>
      </trkpt>
      <trkpt lat="43.75414" lon="3.54327">
        <ele>388.78826283546</ele>
        <time>2016-02-15T10:39:56Z</time>
      </trkpt>
      <trkpt lat="43.75428" lon="3.54324">
        <ele>389.37393096516</ele>
        <time>2016-02-15T10:40:12Z</time>
      </trkpt>
      <trkpt lat="43.7543" lon="3.54322">
        <ele>389.37393096516</ele>
        <time>2016-02-15T10:40:14Z</time>
      </trkpt>
      <trkpt lat="43.75445" lon="3.54321">
        <ele>390.55700910411</ele>
        <time>2016-02-15T10:40:40Z</time>
      </trkpt>
      <trkpt lat="43.75452" lon="3.54323">
        <ele>390.55700910411</ele>
        <time>2016-02-15T10:40:40Z</time>
      </trkpt>
      <trkpt lat="43.75471" lon="3.54328">
        <ele>392.13794677809</ele>
        <time>2016-02-15T10:40:54Z</time>
      </trkpt>
      <trkpt lat="43.75523" lon="3.5432">
        <ele>393.64215681418</ele>
        <time>2016-02-15T10:41:55Z</time>
      </trkpt>
      <trkpt lat="43.75526" lon="3.54325">
        <ele>393.64215681418</ele>
        <time>2016-02-15T10:41:55Z</time>
      </trkpt>
      <trkpt lat="43.75564" lon="3.54281">
        <ele>394.80303083754</ele>
        <time>2016-02-15T10:42:59Z</time>
      </trkpt>
      <trkpt lat="43.75566" lon="3.54278">
        <ele>394.80303083754</ele>
        <time>2016-02-15T10:43:04Z</time>
      </trkpt>
      <trkpt lat="43.75569" lon="3.54275">
        <ele>394.80303083754</ele>
        <time>2016-02-15T10:46:04Z</time>
      </trkpt>
      <trkpt lat="43.75572" lon="3.54264">
        <ele>395.96573551368</ele>
        <time>2016-02-15T10:46:14Z</time>
      </trkpt>
      <trkpt lat="43.75573" lon="3.54258">
        <ele>395.96573551368</ele>
        <time>2016-02-15T10:46:19Z</time>
      </trkpt>
      <trkpt lat="43.75575" lon="3.54257">
        <ele>395.96573551368</ele>
        <time>2016-02-15T10:46:30Z</time>
      </trkpt>
      <trkpt lat="43.75578" lon="3.54255">
        <ele>396.8009350797</ele>
        <time>2016-02-15T10:46:51Z</time>
      </trkpt>
      <trkpt lat="43.75584" lon="3.54267">
        <ele>408.89039692906</ele>
        <time>2016-02-15T10:54:24Z</time>
      </trkpt>
      <trkpt lat="43.75585" lon="3.54266">
        <ele>408.89039692906</ele>
        <time>2016-02-15T10:54:29Z</time>
      </trkpt>
      <trkpt lat="43.75579" lon="3.54255">
        <ele>405.53594354014</ele>
        <time>2016-02-15T10:54:34Z</time>
      </trkpt>
      <trkpt lat="43.7558" lon="3.54255">
        <ele>405.53594354014</ele>
        <time>2016-02-15T10:54:39Z</time>
      </trkpt>
      <trkpt lat="43.75581" lon="3.54239">
        <ele>404.62963993777</ele>
        <time>2016-02-15T10:55:04Z</time>
      </trkpt>
      <trkpt lat="43.75581" lon="3.54232">
        <ele>404.62963993777</ele>
        <time>2016-02-15T10:55:09Z</time>
      </trkpt>
      <trkpt lat="43.75581" lon="3.54215">
        <ele>405.43329483455</ele>
        <time>2016-02-15T10:55:24Z</time>
      </trkpt>
      <trkpt lat="43.7558" lon="3.54209">
        <ele>405.43329483455</ele>
        <time>2016-02-15T10:55:29Z</time>
      </trkpt>
      <trkpt lat="43.75582" lon="3.54196">
        <ele>406.74429196565</ele>
        <time>2016-02-15T10:55:39Z</time>
      </trkpt>
      <trkpt lat="43.75584" lon="3.54192">
        <ele>406.74429196565</ele>
        <time>2016-02-15T10:55:44Z</time>
      </trkpt>
      <trkpt lat="43.75589" lon="3.54178">
        <ele>408.36542809119</ele>
        <time>2016-02-15T10:55:54Z</time>
      </trkpt>
      <trkpt lat="43.75591" lon="3.54166">
        <ele>409.7955994717</ele>
        <time>2016-02-15T10:55:59Z</time>
      </trkpt>
      <trkpt lat="43.75595" lon="3.54156">
        <ele>409.7955994717</ele>
        <time>2016-02-15T10:56:09Z</time>
      </trkpt>
      <trkpt lat="43.75596" lon="3.54151">
        <ele>411.01244440757</ele>
        <time>2016-02-15T10:56:14Z</time>
      </trkpt>
      <trkpt lat="43.75601" lon="3.54143">
        <ele>411.01244440757</ele>
        <time>2016-02-15T10:56:24Z</time>
      </trkpt>
      <trkpt lat="43.75603" lon="3.54141">
        <ele>412.26204356908</ele>
        <time>2016-02-15T10:56:29Z</time>
      </trkpt>
      <trkpt lat="43.75609" lon="3.54126">
        <ele>413.40065911984</ele>
        <time>2016-02-15T10:56:39Z</time>
      </trkpt>
      <trkpt lat="43.7561" lon="3.5412">
        <ele>413.40065911984</ele>
        <time>2016-02-15T10:56:44Z</time>
      </trkpt>
      <trkpt lat="43.75615" lon="3.54106">
        <ele>414.34225656312</ele>
        <time>2016-02-15T10:56:54Z</time>
      </trkpt>
      <trkpt lat="43.75617" lon="3.541">
        <ele>414.34225656312</ele>
        <time>2016-02-15T10:56:59Z</time>
      </trkpt>
      <trkpt lat="43.75624" lon="3.54084">
        <ele>415.32466066237</ele>
        <time>2016-02-15T10:57:14Z</time>
      </trkpt>
      <trkpt lat="43.75625" lon="3.54077">
        <ele>415.32466066237</ele>
        <time>2016-02-15T10:57:19Z</time>
      </trkpt>
      <trkpt lat="43.75627" lon="3.54063">
        <ele>416.29188233387</ele>
        <time>2016-02-15T10:57:29Z</time>
      </trkpt>
      <trkpt lat="43.75629" lon="3.54054">
        <ele>416.29188233387</ele>
        <time>2016-02-15T10:57:34Z</time>
      </trkpt>
      <trkpt lat="43.75626" lon="3.54043">
        <ele>417.17938475905</ele>
        <time>2016-02-15T10:57:44Z</time>
      </trkpt>
      <trkpt lat="43.7562" lon="3.54044">
        <ele>417.17938475905</ele>
        <time>2016-02-15T10:57:49Z</time>
      </trkpt>
      <trkpt lat="43.75613" lon="3.54044">
        <ele>418.02911563161</ele>
        <time>2016-02-15T10:57:59Z</time>
      </trkpt>
      <trkpt lat="43.75608" lon="3.54043">
        <ele>418.02911563161</ele>
        <time>2016-02-15T10:58:04Z</time>
      </trkpt>
      <trkpt lat="43.75597" lon="3.54047">
        <ele>418.92739537949</ele>
        <time>2016-02-15T10:58:14Z</time>
      </trkpt>
      <trkpt lat="43.75587" lon="3.54047">
        <ele>419.68706681829</ele>
        <time>2016-02-15T10:58:19Z</time>
      </trkpt>
      <trkpt lat="43.75581" lon="3.54045">
        <ele>419.68706681829</ele>
        <time>2016-02-15T10:58:29Z</time>
      </trkpt>
      <trkpt lat="43.75577" lon="3.54053">
        <ele>420.73862153783</ele>
        <time>2016-02-15T10:58:54Z</time>
      </trkpt>
      <trkpt lat="43.75569" lon="3.54057">
        <ele>420.73862153783</ele>
        <time>2016-02-15T10:59:04Z</time>
      </trkpt>
      <trkpt lat="43.75565" lon="3.54059">
        <ele>421.6594010427</ele>
        <time>2016-02-15T10:59:09Z</time>
      </trkpt>
      <trkpt lat="43.75553" lon="3.54068">
        <ele>422.43945673945</ele>
        <time>2016-02-15T10:59:19Z</time>
      </trkpt>
      <trkpt lat="43.75548" lon="3.54073">
        <ele>422.43945673945</ele>
        <time>2016-02-15T10:59:24Z</time>
      </trkpt>
      <trkpt lat="43.7554" lon="3.5408">
        <ele>423.14684492389</ele>
        <time>2016-02-15T10:59:34Z</time>
      </trkpt>
      <trkpt lat="43.75537" lon="3.54082">
        <ele>423.14684492389</ele>
        <time>2016-02-15T10:59:39Z</time>
      </trkpt>
      <trkpt lat="43.75525" lon="3.54084">
        <ele>423.77893923657</ele>
        <time>2016-02-15T10:59:49Z</time>
      </trkpt>
      <trkpt lat="43.75522" lon="3.54089">
        <ele>423.77893923657</ele>
        <time>2016-02-15T10:59:54Z</time>
      </trkpt>
      <trkpt lat="43.75515" lon="3.54093">
        <ele>424.34736308264</ele>
        <time>2016-02-15T11:00:04Z</time>
      </trkpt>
      <trkpt lat="43.7551" lon="3.54096">
        <ele>424.34736308264</ele>
        <time>2016-02-15T11:00:09Z</time>
      </trkpt>
      <trkpt lat="43.75499" lon="3.54113">
        <ele>424.90552385199</ele>
        <time>2016-02-15T11:00:24Z</time>
      </trkpt>
      <trkpt lat="43.75495" lon="3.54122">
        <ele>424.90552385199</ele>
        <time>2016-02-15T11:00:29Z</time>
      </trkpt>
      <trkpt lat="43.75486" lon="3.54138">
        <ele>425.44096149228</ele>
        <time>2016-02-15T11:00:39Z</time>
      </trkpt>
      <trkpt lat="43.75485" lon="3.54144">
        <ele>425.44096149228</ele>
        <time>2016-02-15T11:00:44Z</time>
      </trkpt>
      <trkpt lat="43.75486" lon="3.54145">
        <ele>425.44096149228</ele>
        <time>2016-02-15T11:00:54Z</time>
      </trkpt>
      <trkpt lat="43.75487" lon="3.54142">
        <ele>425.44096149228</ele>
        <time>2016-02-15T11:00:59Z</time>
      </trkpt>
      <trkpt lat="43.75489" lon="3.54135">
        <ele>425.92749604347</ele>
        <time>2016-02-15T11:01:09Z</time>
      </trkpt>
      <trkpt lat="43.7549" lon="3.54129">
        <ele>425.92749604347</ele>
        <time>2016-02-15T11:01:14Z</time>
      </trkpt>
      <trkpt lat="43.75491" lon="3.54116">
        <ele>426.41244978384</ele>
        <time>2016-02-15T11:01:24Z</time>
      </trkpt>
      <trkpt lat="43.75491" lon="3.54111">
        <ele>426.41244978384</ele>
        <time>2016-02-15T11:01:29Z</time>
      </trkpt>
      <trkpt lat="43.75498" lon="3.54096">
        <ele>426.93755291096</ele>
        <time>2016-02-15T11:01:39Z</time>
      </trkpt>
      <trkpt lat="43.755" lon="3.54089">
        <ele>426.93755291096</ele>
        <time>2016-02-15T11:01:44Z</time>
      </trkpt>
      <trkpt lat="43.75505" lon="3.54078">
        <ele>427.62426092685</ele>
        <time>2016-02-15T11:01:54Z</time>
      </trkpt>
      <trkpt lat="43.75509" lon="3.54073">
        <ele>427.62426092685</ele>
        <time>2016-02-15T11:01:59Z</time>
      </trkpt>
      <trkpt lat="43.75514" lon="3.54063">
        <ele>428.38775454987</ele>
        <time>2016-02-15T11:02:09Z</time>
      </trkpt>
      <trkpt lat="43.75514" lon="3.54052">
        <ele>428.38775454987</ele>
        <time>2016-02-15T11:02:14Z</time>
      </trkpt>
      <trkpt lat="43.75516" lon="3.54043">
        <ele>429.3041515396</ele>
        <time>2016-02-15T11:02:24Z</time>
      </trkpt>
      <trkpt lat="43.75522" lon="3.54045">
        <ele>429.3041515396</ele>
        <time>2016-02-15T11:02:39Z</time>
      </trkpt>
      <trkpt lat="43.75527" lon="3.54048">
        <ele>430.38856162248</ele>
        <time>2016-02-15T11:02:44Z</time>
      </trkpt>
      <trkpt lat="43.75535" lon="3.54045">
        <ele>430.38856162248</ele>
        <time>2016-02-15T11:02:54Z</time>
      </trkpt>
      <trkpt lat="43.75538" lon="3.54041">
        <ele>431.51701837613</ele>
        <time>2016-02-15T11:02:59Z</time>
      </trkpt>
      <trkpt lat="43.75547" lon="3.54026">
        <ele>432.85280449315</ele>
        <time>2016-02-15T11:03:14Z</time>
      </trkpt>
      <trkpt lat="43.7555" lon="3.54023">
        <ele>432.85280449315</ele>
        <time>2016-02-15T11:03:19Z</time>
      </trkpt>
      <trkpt lat="43.75556" lon="3.54018">
        <ele>434.38178037611</ele>
        <time>2016-02-15T11:03:29Z</time>
      </trkpt>
      <trkpt lat="43.75558" lon="3.54013">
        <ele>434.38178037611</ele>
        <time>2016-02-15T11:03:34Z</time>
      </trkpt>
      <trkpt lat="43.7556" lon="3.54003">
        <ele>436.02100384521</ele>
        <time>2016-02-15T11:03:44Z</time>
      </trkpt>
      <trkpt lat="43.75563" lon="3.53999">
        <ele>436.02100384521</ele>
        <time>2016-02-15T11:03:49Z</time>
      </trkpt>
      <trkpt lat="43.75569" lon="3.5399">
        <ele>437.81911423518</ele>
        <time>2016-02-15T11:03:59Z</time>
      </trkpt>
      <trkpt lat="43.75571" lon="3.53985">
        <ele>437.81911423518</ele>
        <time>2016-02-15T11:04:04Z</time>
      </trkpt>
      <trkpt lat="43.75573" lon="3.53974">
        <ele>439.79363094691</ele>
        <time>2016-02-15T11:04:14Z</time>
      </trkpt>
      <trkpt lat="43.75574" lon="3.5397">
        <ele>439.79363094691</ele>
        <time>2016-02-15T11:04:19Z</time>
      </trkpt>
      <trkpt lat="43.75576" lon="3.53961">
        <ele>441.83230908683</ele>
        <time>2016-02-15T11:04:29Z</time>
      </trkpt>
      <trkpt lat="43.75579" lon="3.53959">
        <ele>441.83230908683</ele>
        <time>2016-02-15T11:04:34Z</time>
      </trkpt>
      <trkpt lat="43.75583" lon="3.53955">
        <ele>443.85694133034</ele>
        <time>2016-02-15T11:04:44Z</time>
      </trkpt>
      <trkpt lat="43.75583" lon="3.5395">
        <ele>443.85694133034</ele>
        <time>2016-02-15T11:04:49Z</time>
      </trkpt>
      <trkpt lat="43.75584" lon="3.53944">
        <ele>443.85694133034</ele>
        <time>2016-02-15T11:04:59Z</time>
      </trkpt>
      <trkpt lat="43.75587" lon="3.53943">
        <ele>445.87995205123</ele>
        <time>2016-02-15T11:05:04Z</time>
      </trkpt>
      <trkpt lat="43.75592" lon="3.53942">
        <ele>445.87995205123</ele>
        <time>2016-02-15T11:05:14Z</time>
      </trkpt>
      <trkpt lat="43.75597" lon="3.53941">
        <ele>448.05880352322</ele>
        <time>2016-02-15T11:05:19Z</time>
      </trkpt>
      <trkpt lat="43.75606" lon="3.53929">
        <ele>450.30757204332</ele>
        <time>2016-02-15T11:05:34Z</time>
      </trkpt>
      <trkpt lat="43.75609" lon="3.53922">
        <ele>450.30757204332</ele>
        <time>2016-02-15T11:05:39Z</time>
      </trkpt>
      <trkpt lat="43.75612" lon="3.53914">
        <ele>452.75099631358</ele>
        <time>2016-02-15T11:05:49Z</time>
      </trkpt>
      <trkpt lat="43.75616" lon="3.53911">
        <ele>452.75099631358</ele>
        <time>2016-02-15T11:05:54Z</time>
      </trkpt>
      <trkpt lat="43.75623" lon="3.53904">
        <ele>455.29836729073</ele>
        <time>2016-02-15T11:06:04Z</time>
      </trkpt>
      <trkpt lat="43.75626" lon="3.53904">
        <ele>455.29836729073</ele>
        <time>2016-02-15T11:06:09Z</time>
      </trkpt>
      <trkpt lat="43.75633" lon="3.53903">
        <ele>457.92321806338</ele>
        <time>2016-02-15T11:06:19Z</time>
      </trkpt>
      <trkpt lat="43.75638" lon="3.53903">
        <ele>457.92321806338</ele>
        <time>2016-02-15T11:06:24Z</time>
      </trkpt>
      <trkpt lat="43.75647" lon="3.53897">
        <ele>460.89952102116</ele>
        <time>2016-02-15T11:06:34Z</time>
      </trkpt>
      <trkpt lat="43.7565" lon="3.53892">
        <ele>460.89952102116</ele>
        <time>2016-02-15T11:06:39Z</time>
      </trkpt>
      <trkpt lat="43.75656" lon="3.53884">
        <ele>464.21215773738</ele>
        <time>2016-02-15T11:06:49Z</time>
      </trkpt>
      <trkpt lat="43.75659" lon="3.5388">
        <ele>464.21215773738</ele>
        <time>2016-02-15T11:06:54Z</time>
      </trkpt>
      <trkpt lat="43.75664" lon="3.53875">
        <ele>467.45403167395</ele>
        <time>2016-02-15T11:07:04Z</time>
      </trkpt>
      <trkpt lat="43.75669" lon="3.53872">
        <ele>467.45403167395</ele>
        <time>2016-02-15T11:07:09Z</time>
      </trkpt>
      <trkpt lat="43.75679" lon="3.53868">
        <ele>470.59299456572</ele>
        <time>2016-02-15T11:07:19Z</time>
      </trkpt>
      <trkpt lat="43.75682" lon="3.53867">
        <ele>470.59299456572</ele>
        <time>2016-02-15T11:07:24Z</time>
      </trkpt>
      <trkpt lat="43.75689" lon="3.53861">
        <ele>473.79637259621</ele>
        <time>2016-02-15T11:07:34Z</time>
      </trkpt>
      <trkpt lat="43.75692" lon="3.53861">
        <ele>473.79637259621</ele>
        <time>2016-02-15T11:07:39Z</time>
      </trkpt>
      <trkpt lat="43.75705" lon="3.53858">
        <ele>477.09864216074</ele>
        <time>2016-02-15T11:07:54Z</time>
      </trkpt>
      <trkpt lat="43.7571" lon="3.53859">
        <ele>477.09864216074</ele>
        <time>2016-02-15T11:07:59Z</time>
      </trkpt>
      <trkpt lat="43.75717" lon="3.53843">
        <ele>479.97298429841</ele>
        <time>2016-02-15T11:08:09Z</time>
      </trkpt>
      <trkpt lat="43.75717" lon="3.53839">
        <ele>479.97298429841</ele>
        <time>2016-02-15T11:08:14Z</time>
      </trkpt>
      <trkpt lat="43.75715" lon="3.53835">
        <ele>479.97298429841</ele>
        <time>2016-02-15T11:08:24Z</time>
      </trkpt>
      <trkpt lat="43.75718" lon="3.53835">
        <ele>482.93139256137</ele>
        <time>2016-02-15T11:08:29Z</time>
      </trkpt>
      <trkpt lat="43.75724" lon="3.53831">
        <ele>482.93139256137</ele>
        <time>2016-02-15T11:08:44Z</time>
      </trkpt>
      <trkpt lat="43.75725" lon="3.53825">
        <ele>485.82761422724</ele>
        <time>2016-02-15T11:08:49Z</time>
      </trkpt>
      <trkpt lat="43.75724" lon="3.53819">
        <ele>485.82761422724</ele>
        <time>2016-02-15T11:08:59Z</time>
      </trkpt>
      <trkpt lat="43.75726" lon="3.53819">
        <ele>485.82761422724</ele>
        <time>2016-02-15T11:09:04Z</time>
      </trkpt>
      <trkpt lat="43.75729" lon="3.53824">
        <ele>488.88887829715</ele>
        <time>2016-02-15T11:09:14Z</time>
      </trkpt>
      <trkpt lat="43.75729" lon="3.53824">
        <ele>488.88887829715</ele>
        <time>2016-02-15T11:09:19Z</time>
      </trkpt>
      <trkpt lat="43.75729" lon="3.53811">
        <ele>491.42185935444</ele>
        <time>2016-02-15T11:09:29Z</time>
      </trkpt>
      <trkpt lat="43.75727" lon="3.53808">
        <ele>491.42185935444</ele>
        <time>2016-02-15T11:09:34Z</time>
      </trkpt>
      <trkpt lat="43.75729" lon="3.53803">
        <ele>491.42185935444</ele>
        <time>2016-02-15T11:09:44Z</time>
      </trkpt>
      <trkpt lat="43.75728" lon="3.53802">
        <ele>491.42185935444</ele>
        <time>2016-02-15T11:09:49Z</time>
      </trkpt>
      <trkpt lat="43.75727" lon="3.5379">
        <ele>493.90237448627</ele>
        <time>2016-02-15T11:10:14Z</time>
      </trkpt>
      <trkpt lat="43.75724" lon="3.53788">
        <ele>493.90237448627</ele>
        <time>2016-02-15T11:10:19Z</time>
      </trkpt>
      <trkpt lat="43.75717" lon="3.53782">
        <ele>496.09367342892</ele>
        <time>2016-02-15T11:10:34Z</time>
      </trkpt>
      <trkpt lat="43.75717" lon="3.53779">
        <ele>496.09367342892</ele>
        <time>2016-02-15T11:10:49Z</time>
      </trkpt>
      <trkpt lat="43.75717" lon="3.53776">
        <ele>496.09367342892</ele>
        <time>2016-02-15T11:10:54Z</time>
      </trkpt>
      <trkpt lat="43.75721" lon="3.53777">
        <ele>496.09367342892</ele>
        <time>2016-02-15T11:11:04Z</time>
      </trkpt>
      <trkpt lat="43.75721" lon="3.53774">
        <ele>498.04864477008</ele>
        <time>2016-02-15T11:11:09Z</time>
      </trkpt>
      <trkpt lat="43.75722" lon="3.53762">
        <ele>499.62294903504</ele>
        <time>2016-02-15T11:11:19Z</time>
      </trkpt>
      <trkpt lat="43.75722" lon="3.53757">
        <ele>499.62294903504</ele>
        <time>2016-02-15T11:11:24Z</time>
      </trkpt>
      <trkpt lat="43.75724" lon="3.53757">
        <ele>499.62294903504</ele>
        <time>2016-02-15T11:11:34Z</time>
      </trkpt>
      <trkpt lat="43.75723" lon="3.53758">
        <ele>499.62294903504</ele>
        <time>2016-02-15T11:11:39Z</time>
      </trkpt>
      <trkpt lat="43.75732" lon="3.53759">
        <ele>501.16100602262</ele>
        <time>2016-02-15T11:11:49Z</time>
      </trkpt>
      <trkpt lat="43.75731" lon="3.53755">
        <ele>501.16100602262</ele>
        <time>2016-02-15T11:11:54Z</time>
      </trkpt>
      <trkpt lat="43.75726" lon="3.53742">
        <ele>502.51891539032</ele>
        <time>2016-02-15T11:12:09Z</time>
      </trkpt>
      <trkpt lat="43.75724" lon="3.53737">
        <ele>502.51891539032</ele>
        <time>2016-02-15T11:12:14Z</time>
      </trkpt>
      <trkpt lat="43.75722" lon="3.53734">
        <ele>502.51891539032</ele>
        <time>2016-02-15T11:12:24Z</time>
      </trkpt>
      <trkpt lat="43.75731" lon="3.53733">
        <ele>503.9053580467</ele>
        <time>2016-02-15T11:12:39Z</time>
      </trkpt>
      <trkpt lat="43.75733" lon="3.53735">
        <ele>503.9053580467</ele>
        <time>2016-02-15T11:12:44Z</time>
      </trkpt>
      <trkpt lat="43.75737" lon="3.53741">
        <ele>503.9053580467</ele>
        <time>2016-02-15T11:12:54Z</time>
      </trkpt>
      <trkpt lat="43.75738" lon="3.53747">
        <ele>505.34920218079</ele>
        <time>2016-02-15T11:12:59Z</time>
      </trkpt>
      <trkpt lat="43.75742" lon="3.53753">
        <ele>505.34920218079</ele>
        <time>2016-02-15T11:13:09Z</time>
      </trkpt>
      <trkpt lat="43.75745" lon="3.53756">
        <ele>506.80319466054</ele>
        <time>2016-02-15T11:13:14Z</time>
      </trkpt>
      <trkpt lat="43.75751" lon="3.53763">
        <ele>506.80319466054</ele>
        <time>2016-02-15T11:13:24Z</time>
      </trkpt>
      <trkpt lat="43.75754" lon="3.53767">
        <ele>508.23866853658</ele>
        <time>2016-02-15T11:13:29Z</time>
      </trkpt>
      <trkpt lat="43.75759" lon="3.53766">
        <ele>508.23866853658</ele>
        <time>2016-02-15T11:13:39Z</time>
      </trkpt>
      <trkpt lat="43.75759" lon="3.53763">
        <ele>508.23866853658</ele>
        <time>2016-02-15T11:13:44Z</time>
      </trkpt>
      <trkpt lat="43.75761" lon="3.53752">
        <ele>509.90767270424</ele>
        <time>2016-02-15T11:13:54Z</time>
      </trkpt>
      <trkpt lat="43.75762" lon="3.53748">
        <ele>509.90767270424</ele>
        <time>2016-02-15T11:13:59Z</time>
      </trkpt>
      <trkpt lat="43.75762" lon="3.53747">
        <ele>509.90767270424</ele>
        <time>2016-02-15T11:14:14Z</time>
      </trkpt>
      <trkpt lat="43.75779" lon="3.53698">
        <ele>512.46497109753</ele>
        <time>2016-02-15T11:15:41Z</time>
      </trkpt>
      <trkpt lat="43.75778" lon="3.53698">
        <ele>512.46497109753</ele>
        <time>2016-02-15T11:15:48Z</time>
      </trkpt>
      <trkpt lat="43.75783" lon="3.53696">
        <ele>512.46497109753</ele>
        <time>2016-02-15T11:16:06Z</time>
      </trkpt>
      <trkpt lat="43.75785" lon="3.53689">
        <ele>514.68626544909</ele>
        <time>2016-02-15T11:16:06Z</time>
      </trkpt>
      <trkpt lat="43.75785" lon="3.53677">
        <ele>514.68626544909</ele>
        <time>2016-02-15T11:16:18Z</time>
      </trkpt>
      <trkpt lat="43.75785" lon="3.53677">
        <ele>514.68626544909</ele>
        <time>2016-02-15T11:16:19Z</time>
      </trkpt>
      <trkpt lat="43.75782" lon="3.53669">
        <ele>516.58314117697</ele>
        <time>2016-02-15T11:16:24Z</time>
      </trkpt>
      <trkpt lat="43.75789" lon="3.53669">
        <ele>516.58314117697</ele>
        <time>2016-02-15T11:16:44Z</time>
      </trkpt>
      <trkpt lat="43.75795" lon="3.53684">
        <ele>518.0651584983</ele>
        <time>2016-02-15T11:17:03Z</time>
      </trkpt>
      <trkpt lat="43.75795" lon="3.53685">
        <ele>518.0651584983</ele>
        <time>2016-02-15T11:17:04Z</time>
      </trkpt>
      <trkpt lat="43.75796" lon="3.53705">
        <ele>519.20971511308</ele>
        <time>2016-02-15T11:17:22Z</time>
      </trkpt>
      <trkpt lat="43.75798" lon="3.53712">
        <ele>519.20971511308</ele>
        <time>2016-02-15T11:17:27Z</time>
      </trkpt>
      <trkpt lat="43.75801" lon="3.5372">
        <ele>520.08883340953</ele>
        <time>2016-02-15T11:17:34Z</time>
      </trkpt>
      <trkpt lat="43.75824" lon="3.53725">
        <ele>520.58114996185</ele>
        <time>2016-02-15T11:18:08Z</time>
      </trkpt>
      <trkpt lat="43.75825" lon="3.53724">
        <ele>520.58114996185</ele>
        <time>2016-02-15T11:18:09Z</time>
      </trkpt>
      <trkpt lat="43.75844" lon="3.53712">
        <ele>520.72034503687</ele>
        <time>2016-02-15T11:18:35Z</time>
      </trkpt>
      <trkpt lat="43.75916" lon="3.53696">
        <ele>519.64169641358</ele>
        <time>2016-02-15T11:19:49Z</time>
      </trkpt>
      <trkpt lat="43.75944" lon="3.53669">
        <ele>517.95131403649</ele>
        <time>2016-02-15T11:20:30Z</time>
      </trkpt>
      <trkpt lat="43.75952" lon="3.53661">
        <ele>516.18166412115</ele>
        <time>2016-02-15T11:20:30Z</time>
      </trkpt>
      <trkpt lat="43.7597" lon="3.53642">
        <ele>514.42090085336</ele>
        <time>2016-02-15T11:21:00Z</time>
      </trkpt>
      <trkpt lat="43.75975" lon="3.53639">
        <ele>514.42090085336</ele>
        <time>2016-02-15T11:21:00Z</time>
      </trkpt>
      <trkpt lat="43.75989" lon="3.53624">
        <ele>512.88040055579</ele>
        <time>2016-02-15T11:21:24Z</time>
      </trkpt>
      <trkpt lat="43.75995" lon="3.53618">
        <ele>512.88040055579</ele>
        <time>2016-02-15T11:21:26Z</time>
      </trkpt>
      <trkpt lat="43.76" lon="3.53611">
        <ele>511.42334575895</ele>
        <time>2016-02-15T11:21:43Z</time>
      </trkpt>
      <trkpt lat="43.7601" lon="3.53603">
        <ele>509.93728986354</ele>
        <time>2016-02-15T11:21:51Z</time>
      </trkpt>
      <trkpt lat="43.76067" lon="3.53622">
        <ele>508.50559200468</ele>
        <time>2016-02-15T11:23:06Z</time>
      </trkpt>
      <trkpt lat="43.76072" lon="3.53626">
        <ele>508.50559200468</ele>
        <time>2016-02-15T11:23:06Z</time>
      </trkpt>
      <trkpt lat="43.76082" lon="3.53646">
        <ele>507.50796868567</ele>
        <time>2016-02-15T11:23:37Z</time>
      </trkpt>
      <trkpt lat="43.76074" lon="3.53671">
        <ele>506.67482903909</ele>
        <time>2016-02-15T11:23:59Z</time>
      </trkpt>
      <trkpt lat="43.76073" lon="3.53673">
        <ele>506.67482903909</ele>
        <time>2016-02-15T11:23:59Z</time>
      </trkpt>
      <trkpt lat="43.76066" lon="3.53694">
        <ele>505.84236327745</ele>
        <time>2016-02-15T11:24:14Z</time>
      </trkpt>
      <trkpt lat="43.76048" lon="3.53731">
        <ele>505.30557602712</ele>
        <time>2016-02-15T11:24:56Z</time>
      </trkpt>
      <trkpt lat="43.76047" lon="3.53738">
        <ele>505.30557602712</ele>
        <time>2016-02-15T11:24:56Z</time>
      </trkpt>
      <trkpt lat="43.76045" lon="3.53748">
        <ele>504.8033206799</ele>
        <time>2016-02-15T11:25:13Z</time>
      </trkpt>
      <trkpt lat="43.76037" lon="3.53776">
        <ele>504.46820671153</ele>
        <time>2016-02-15T11:25:30Z</time>
      </trkpt>
      <trkpt lat="43.76035" lon="3.5379">
        <ele>504.16289006375</ele>
        <time>2016-02-15T11:25:31Z</time>
      </trkpt>
      <trkpt lat="43.76035" lon="3.53799">
        <ele>504.16289006375</ele>
        <time>2016-02-15T11:25:39Z</time>
      </trkpt>
      <trkpt lat="43.76036" lon="3.53804">
        <ele>504.12030761869</ele>
        <time>2016-02-15T11:25:44Z</time>
      </trkpt>
      <trkpt lat="43.76039" lon="3.53821">
        <ele>504.16599978775</ele>
        <time>2016-02-15T11:26:00Z</time>
      </trkpt>
      <trkpt lat="43.76039" lon="3.53823">
        <ele>504.16599978775</ele>
        <time>2016-02-15T11:26:00Z</time>
      </trkpt>
      <trkpt lat="43.76047" lon="3.5384">
        <ele>504.51280876859</ele>
        <time>2016-02-15T11:26:36Z</time>
      </trkpt>
      <trkpt lat="43.76051" lon="3.53843">
        <ele>504.51280876859</ele>
        <time>2016-02-15T11:26:36Z</time>
      </trkpt>
      <trkpt lat="43.76064" lon="3.53831">
        <ele>505.12615452477</ele>
        <time>2016-02-15T11:27:00Z</time>
      </trkpt>
      <trkpt lat="43.76069" lon="3.53827">
        <ele>505.12615452477</ele>
        <time>2016-02-15T11:27:00Z</time>
      </trkpt>
      <trkpt lat="43.76084" lon="3.53815">
        <ele>506.03073694314</ele>
        <time>2016-02-15T11:27:17Z</time>
      </trkpt>
      <trkpt lat="43.76123" lon="3.53805">
        <ele>508.08501233501</ele>
        <time>2016-02-15T11:27:59Z</time>
      </trkpt>
      <trkpt lat="43.76138" lon="3.53805">
        <ele>510.76839762395</ele>
        <time>2016-02-15T11:28:16Z</time>
      </trkpt>
      <trkpt lat="43.76162" lon="3.53839">
        <ele>514.36109501062</ele>
        <time>2016-02-15T11:29:00Z</time>
      </trkpt>
      <trkpt lat="43.7617" lon="3.5386">
        <ele>518.12473835454</ele>
        <time>2016-02-15T11:29:11Z</time>
      </trkpt>
      <trkpt lat="43.7617" lon="3.53861">
        <ele>518.12473835454</ele>
        <time>2016-02-15T11:29:11Z</time>
      </trkpt>
      <trkpt lat="43.76171" lon="3.53867">
        <ele>518.12473835454</ele>
        <time>2016-02-15T11:29:15Z</time>
      </trkpt>
      <trkpt lat="43.76184" lon="3.53902">
        <ele>522.52861909991</ele>
        <time>2016-02-15T11:29:44Z</time>
      </trkpt>
      <trkpt lat="43.76185" lon="3.53922">
        <ele>526.86615163155</ele>
        <time>2016-02-15T11:30:00Z</time>
      </trkpt>
      <trkpt lat="43.76181" lon="3.53938">
        <ele>531.07429214092</ele>
        <time>2016-02-15T11:30:16Z</time>
      </trkpt>
      <trkpt lat="43.76177" lon="3.53944">
        <ele>531.07429214092</ele>
        <time>2016-02-15T11:30:22Z</time>
      </trkpt>
      <trkpt lat="43.76163" lon="3.53968">
        <ele>535.26811319295</ele>
        <time>2016-02-15T11:30:40Z</time>
      </trkpt>
      <trkpt lat="43.76153" lon="3.53979">
        <ele>539.17931631933</ele>
        <time>2016-02-15T11:30:53Z</time>
      </trkpt>
      <trkpt lat="43.76124" lon="3.54017">
        <ele>542.67561674289</ele>
        <time>2016-02-15T11:31:47Z</time>
      </trkpt>
      <trkpt lat="43.76123" lon="3.54039">
        <ele>545.93859843989</ele>
        <time>2016-02-15T11:31:55Z</time>
      </trkpt>
      <trkpt lat="43.76138" lon="3.54091">
        <ele>549.16608190324</ele>
        <time>2016-02-15T11:32:52Z</time>
      </trkpt>
      <trkpt lat="43.76138" lon="3.54094">
        <ele>549.16608190324</ele>
        <time>2016-02-15T11:32:52Z</time>
      </trkpt>
      <trkpt lat="43.76131" lon="3.54107">
        <ele>552.23871170997</ele>
        <time>2016-02-15T11:33:11Z</time>
      </trkpt>
      <trkpt lat="43.76126" lon="3.5415">
        <ele>555.65211686658</ele>
        <time>2016-02-15T11:33:41Z</time>
      </trkpt>
      <trkpt lat="43.76125" lon="3.54155">
        <ele>555.65211686658</ele>
        <time>2016-02-15T11:33:44Z</time>
      </trkpt>
      <trkpt lat="43.76129" lon="3.54171">
        <ele>558.9417921079</ele>
        <time>2016-02-15T11:34:05Z</time>
      </trkpt>
      <trkpt lat="43.76135" lon="3.54177">
        <ele>558.9417921079</ele>
        <time>2016-02-15T11:34:05Z</time>
      </trkpt>
      <trkpt lat="43.76143" lon="3.54185">
        <ele>562.03840433662</ele>
        <time>2016-02-15T11:34:21Z</time>
      </trkpt>
      <trkpt lat="43.76184" lon="3.54199">
        <ele>565.33978156935</ele>
        <time>2016-02-15T11:34:54Z</time>
      </trkpt>
      <trkpt lat="43.76194" lon="3.54211">
        <ele>568.23370381847</ele>
        <time>2016-02-15T11:35:12Z</time>
      </trkpt>
      <trkpt lat="43.76194" lon="3.54214">
        <ele>568.23370381847</ele>
        <time>2016-02-15T11:35:19Z</time>
      </trkpt>
      <trkpt lat="43.76195" lon="3.5423">
        <ele>570.93281262516</ele>
        <time>2016-02-15T11:35:35Z</time>
      </trkpt>
      <trkpt lat="43.76193" lon="3.54238">
        <ele>570.93281262516</ele>
        <time>2016-02-15T11:35:35Z</time>
      </trkpt>
      <trkpt lat="43.76193" lon="3.54239">
        <ele>570.93281262516</ele>
        <time>2016-02-15T11:35:36Z</time>
      </trkpt>
      <trkpt lat="43.76197" lon="3.54249">
        <ele>573.27441708106</ele>
        <time>2016-02-15T11:35:51Z</time>
      </trkpt>
      <trkpt lat="43.76196" lon="3.54258">
        <ele>573.27441708106</ele>
        <time>2016-02-15T11:35:51Z</time>
      </trkpt>
      <trkpt lat="43.76202" lon="3.54302">
        <ele>575.12338416758</ele>
        <time>2016-02-15T11:36:26Z</time>
      </trkpt>
      <trkpt lat="43.76206" lon="3.54313">
        <ele>576.60110725564</ele>
        <time>2016-02-15T11:36:26Z</time>
      </trkpt>
      <trkpt lat="43.76235" lon="3.54341">
        <ele>578.54192302154</ele>
        <time>2016-02-15T11:37:00Z</time>
      </trkpt>
      <trkpt lat="43.76236" lon="3.54342">
        <ele>578.54192302154</ele>
        <time>2016-02-15T11:37:01Z</time>
      </trkpt>
      <trkpt lat="43.76241" lon="3.54347">
        <ele>578.54192302154</ele>
        <time>2016-02-15T11:37:11Z</time>
      </trkpt>
      <trkpt lat="43.76241" lon="3.54351">
        <ele>580.17539672889</ele>
        <time>2016-02-15T11:37:14Z</time>
      </trkpt>
      <trkpt lat="43.76241" lon="3.5436">
        <ele>580.17539672889</ele>
        <time>2016-02-15T11:37:38Z</time>
      </trkpt>
      <trkpt lat="43.76239" lon="3.54378">
        <ele>581.50942160227</ele>
        <time>2016-02-15T11:37:39Z</time>
      </trkpt>
      <trkpt lat="43.76242" lon="3.54381">
        <ele>581.50942160227</ele>
        <time>2016-02-15T11:37:44Z</time>
      </trkpt>
      <trkpt lat="43.76277" lon="3.544">
        <ele>583.07112647559</ele>
        <time>2016-02-15T11:38:21Z</time>
      </trkpt>
      <trkpt lat="43.76293" lon="3.54434">
        <ele>584.58449983636</ele>
        <time>2016-02-15T11:39:00Z</time>
      </trkpt>
      <trkpt lat="43.76291" lon="3.54469">
        <ele>585.99583914454</ele>
        <time>2016-02-15T11:39:14Z</time>
      </trkpt>
      <trkpt lat="43.76289" lon="3.54471">
        <ele>585.99583914454</ele>
        <time>2016-02-15T11:39:14Z</time>
      </trkpt>
      <trkpt lat="43.76285" lon="3.54487">
        <ele>587.15489004425</ele>
        <time>2016-02-15T11:39:25Z</time>
      </trkpt>
      <trkpt lat="43.7629" lon="3.54511">
        <ele>587.7791188499</ele>
        <time>2016-02-15T11:39:50Z</time>
      </trkpt>
      <trkpt lat="43.76289" lon="3.54521">
        <ele>587.7791188499</ele>
        <time>2016-02-15T11:39:51Z</time>
      </trkpt>
      <trkpt lat="43.76286" lon="3.54531">
        <ele>588.08390932391</ele>
        <time>2016-02-15T11:40:07Z</time>
      </trkpt>
      <trkpt lat="43.76285" lon="3.5454">
        <ele>588.08390932391</ele>
        <time>2016-02-15T11:40:07Z</time>
      </trkpt>
      <trkpt lat="43.76287" lon="3.54564">
        <ele>588.01036261297</ele>
        <time>2016-02-15T11:40:29Z</time>
      </trkpt>
      <trkpt lat="43.76288" lon="3.54572">
        <ele>588.01036261297</ele>
        <time>2016-02-15T11:40:30Z</time>
      </trkpt>
      <trkpt lat="43.76284" lon="3.54585">
        <ele>587.80764867128</ele>
        <time>2016-02-15T11:40:39Z</time>
      </trkpt>
      <trkpt lat="43.76285" lon="3.54587">
        <ele>587.80764867128</ele>
        <time>2016-02-15T11:40:39Z</time>
      </trkpt>
      <trkpt lat="43.76329" lon="3.54619">
        <ele>588.54287317678</ele>
        <time>2016-02-15T11:41:39Z</time>
      </trkpt>
      <trkpt lat="43.76328" lon="3.54644">
        <ele>588.91073107178</ele>
        <time>2016-02-15T11:42:09Z</time>
      </trkpt>
      <trkpt lat="43.76338" lon="3.54677">
        <ele>589.17279145248</ele>
        <time>2016-02-15T11:42:39Z</time>
      </trkpt>
      <trkpt lat="43.76344" lon="3.54721">
        <ele>589.75903542322</ele>
        <time>2016-02-15T11:43:06Z</time>
      </trkpt>
      <trkpt lat="43.76359" lon="3.54749">
        <ele>589.95725652342</ele>
        <time>2016-02-15T11:43:30Z</time>
      </trkpt>
      <trkpt lat="43.76367" lon="3.54774">
        <ele>590.10299616524</ele>
        <time>2016-02-15T11:43:57Z</time>
      </trkpt>
      <trkpt lat="43.76364" lon="3.54783">
        <ele>590.10299616524</ele>
        <time>2016-02-15T11:43:57Z</time>
      </trkpt>
      <trkpt lat="43.76355" lon="3.54818">
        <ele>590.21902346934</ele>
        <time>2016-02-15T11:44:28Z</time>
      </trkpt>
      <trkpt lat="43.76353" lon="3.54826">
        <ele>590.21902346934</ele>
        <time>2016-02-15T11:44:30Z</time>
      </trkpt>
      <trkpt lat="43.76327" lon="3.54907">
        <ele>589.53383916268</ele>
        <time>2016-02-15T11:45:28Z</time>
      </trkpt>
      <trkpt lat="43.76321" lon="3.54914">
        <ele>589.53383916268</ele>
        <time>2016-02-15T11:45:31Z</time>
      </trkpt>
      <trkpt lat="43.76317" lon="3.54922">
        <ele>588.79033920635</ele>
        <time>2016-02-15T11:45:38Z</time>
      </trkpt>
      <trkpt lat="43.76316" lon="3.54923">
        <ele>588.79033920635</ele>
        <time>2016-02-15T11:45:39Z</time>
      </trkpt>
      <trkpt lat="43.76276" lon="3.5496">
        <ele>587.66813643744</ele>
        <time>2016-02-15T11:46:26Z</time>
      </trkpt>
      <trkpt lat="43.76267" lon="3.54968">
        <ele>586.37574287561</ele>
        <time>2016-02-15T11:46:36Z</time>
      </trkpt>
      <trkpt lat="43.76266" lon="3.5497">
        <ele>586.37574287561</ele>
        <time>2016-02-15T11:46:36Z</time>
      </trkpt>
      <trkpt lat="43.7624" lon="3.54996">
        <ele>584.74643424373</ele>
        <time>2016-02-15T11:47:01Z</time>
      </trkpt>
      <trkpt lat="43.7619" lon="3.5507">
        <ele>582.68419537347</ele>
        <time>2016-02-15T11:48:18Z</time>
      </trkpt>
      <trkpt lat="43.76187" lon="3.55071">
        <ele>582.68419537347</ele>
        <time>2016-02-15T11:48:18Z</time>
      </trkpt>
      <trkpt lat="43.76184" lon="3.55074">
        <ele>582.68419537347</ele>
        <time>2016-02-15T11:48:21Z</time>
      </trkpt>
      <trkpt lat="43.7618" lon="3.55092">
        <ele>580.8361175071</ele>
        <time>2016-02-15T11:48:44Z</time>
      </trkpt>
      <trkpt lat="43.76169" lon="3.55098">
        <ele>580.65127452731</ele>
        <time>2016-02-15T11:57:11Z</time>
      </trkpt>
      <trkpt lat="43.7618" lon="3.55102">
        <ele>580.48427955987</ele>
        <time>2016-02-15T12:02:49Z</time>
      </trkpt>
      <trkpt lat="43.76182" lon="3.55103">
        <ele>580.48427955987</ele>
        <time>2016-02-15T12:02:49Z</time>
      </trkpt>
      <trkpt lat="43.76266" lon="3.55172">
        <ele>580.74152696047</ele>
        <time>2016-02-15T12:04:51Z</time>
      </trkpt>
      <trkpt lat="43.76281" lon="3.55159">
        <ele>581.13526257896</ele>
        <time>2016-02-15T12:05:13Z</time>
      </trkpt>
      <trkpt lat="43.76301" lon="3.55142">
        <ele>581.60007678527</ele>
        <time>2016-02-15T12:05:31Z</time>
      </trkpt>
      <trkpt lat="43.76301" lon="3.55141">
        <ele>581.60007678527</ele>
        <time>2016-02-15T12:05:39Z</time>
      </trkpt>
      <trkpt lat="43.76305" lon="3.55136">
        <ele>581.60007678527</ele>
        <time>2016-02-15T12:05:41Z</time>
      </trkpt>
      <trkpt lat="43.76322" lon="3.55127">
        <ele>582.01735324258</ele>
        <time>2016-02-15T12:05:56Z</time>
      </trkpt>
      <trkpt lat="43.76328" lon="3.55121">
        <ele>582.01735324258</ele>
        <time>2016-02-15T12:05:56Z</time>
      </trkpt>
      <trkpt lat="43.76336" lon="3.55117">
        <ele>582.42127746696</ele>
        <time>2016-02-15T12:06:09Z</time>
      </trkpt>
      <trkpt lat="43.76339" lon="3.55116">
        <ele>582.42127746696</ele>
        <time>2016-02-15T12:06:09Z</time>
      </trkpt>
      <trkpt lat="43.76353" lon="3.5511">
        <ele>582.88664203471</ele>
        <time>2016-02-15T12:06:22Z</time>
      </trkpt>
      <trkpt lat="43.76355" lon="3.55109">
        <ele>582.88664203471</ele>
        <time>2016-02-15T12:06:24Z</time>
      </trkpt>
      <trkpt lat="43.76408" lon="3.55129">
        <ele>582.92037909029</ele>
        <time>2016-02-15T12:07:25Z</time>
      </trkpt>
      <trkpt lat="43.76407" lon="3.55133">
        <ele>582.92037909029</ele>
        <time>2016-02-15T12:07:25Z</time>
      </trkpt>
      <trkpt lat="43.76409" lon="3.55145">
        <ele>582.83051784734</ele>
        <time>2016-02-15T12:07:42Z</time>
      </trkpt>
      <trkpt lat="43.76415" lon="3.55158">
        <ele>582.54238157947</ele>
        <time>2016-02-15T12:07:42Z</time>
      </trkpt>
      <trkpt lat="43.7642" lon="3.55166">
        <ele>582.54238157947</ele>
        <time>2016-02-15T12:07:54Z</time>
      </trkpt>
      <trkpt lat="43.76423" lon="3.55171">
        <ele>582.0448455049</ele>
        <time>2016-02-15T12:07:55Z</time>
      </trkpt>
      <trkpt lat="43.76437" lon="3.55189">
        <ele>581.37128844555</ele>
        <time>2016-02-15T12:08:14Z</time>
      </trkpt>
      <trkpt lat="43.7644" lon="3.55195">
        <ele>581.37128844555</ele>
        <time>2016-02-15T12:08:19Z</time>
      </trkpt>
      <trkpt lat="43.76452" lon="3.55209">
        <ele>580.50976114003</ele>
        <time>2016-02-15T12:08:29Z</time>
      </trkpt>
      <trkpt lat="43.76458" lon="3.55208">
        <ele>580.50976114003</ele>
        <time>2016-02-15T12:08:34Z</time>
      </trkpt>
      <trkpt lat="43.76468" lon="3.55203">
        <ele>579.52163890802</ele>
        <time>2016-02-15T12:08:44Z</time>
      </trkpt>
      <trkpt lat="43.76469" lon="3.55208">
        <ele>579.52163890802</ele>
        <time>2016-02-15T12:08:49Z</time>
      </trkpt>
      <trkpt lat="43.76473" lon="3.55211">
        <ele>579.52163890802</ele>
        <time>2016-02-15T12:08:59Z</time>
      </trkpt>
      <trkpt lat="43.76475" lon="3.55216">
        <ele>578.17577724412</ele>
        <time>2016-02-15T12:09:04Z</time>
      </trkpt>
      <trkpt lat="43.76479" lon="3.55232">
        <ele>576.70562221292</ele>
        <time>2016-02-15T12:09:16Z</time>
      </trkpt>
      <trkpt lat="43.76491" lon="3.55246">
        <ele>575.15473501604</ele>
        <time>2016-02-15T12:09:38Z</time>
      </trkpt>
      <trkpt lat="43.76504" lon="3.55258">
        <ele>573.60678356916</ele>
        <time>2016-02-15T12:09:55Z</time>
      </trkpt>
      <trkpt lat="43.76545" lon="3.55295">
        <ele>572.787629136</ele>
        <time>2016-02-15T12:10:28Z</time>
      </trkpt>
      <trkpt lat="43.76546" lon="3.55295">
        <ele>572.787629136</ele>
        <time>2016-02-15T12:10:29Z</time>
      </trkpt>
      <trkpt lat="43.7656" lon="3.55306">
        <ele>572.40205423165</ele>
        <time>2016-02-15T12:10:47Z</time>
      </trkpt>
      <trkpt lat="43.76561" lon="3.55306">
        <ele>572.40205423165</ele>
        <time>2016-02-15T12:10:47Z</time>
      </trkpt>
      <trkpt lat="43.76562" lon="3.5531">
        <ele>572.40205423165</ele>
        <time>2016-02-15T12:10:54Z</time>
      </trkpt>
      <trkpt lat="43.76594" lon="3.55336">
        <ele>572.50661370862</ele>
        <time>2016-02-15T12:11:20Z</time>
      </trkpt>
      <trkpt lat="43.76605" lon="3.55338">
        <ele>572.6622010725</ele>
        <time>2016-02-15T12:11:29Z</time>
      </trkpt>
      <trkpt lat="43.76623" lon="3.55351">
        <ele>572.89401671461</ele>
        <time>2016-02-15T12:11:46Z</time>
      </trkpt>
      <trkpt lat="43.76656" lon="3.55371">
        <ele>573.25388517984</ele>
        <time>2016-02-15T12:12:19Z</time>
      </trkpt>
      <trkpt lat="43.76677" lon="3.55387">
        <ele>573.87580988036</ele>
        <time>2016-02-15T12:12:39Z</time>
      </trkpt>
      <trkpt lat="43.76713" lon="3.55461">
        <ele>575.35867433155</ele>
        <time>2016-02-15T12:13:52Z</time>
      </trkpt>
      <trkpt lat="43.76711" lon="3.55499">
        <ele>577.20284566359</ele>
        <time>2016-02-15T12:14:13Z</time>
      </trkpt>
      <trkpt lat="43.76707" lon="3.55509">
        <ele>577.20284566359</ele>
        <time>2016-02-15T12:14:13Z</time>
      </trkpt>
      <trkpt lat="43.76697" lon="3.55528">
        <ele>579.01636062242</ele>
        <time>2016-02-15T12:14:27Z</time>
      </trkpt>
      <trkpt lat="43.76696" lon="3.55535">
        <ele>579.01636062242</ele>
        <time>2016-02-15T12:14:30Z</time>
      </trkpt>
      <trkpt lat="43.76683" lon="3.55551">
        <ele>580.59460060311</ele>
        <time>2016-02-15T12:14:46Z</time>
      </trkpt>
      <trkpt lat="43.76676" lon="3.5556">
        <ele>582.03682169569</ele>
        <time>2016-02-15T12:15:11Z</time>
      </trkpt>
      <trkpt lat="43.76668" lon="3.55588">
        <ele>583.16153601849</ele>
        <time>2016-02-15T12:15:12Z</time>
      </trkpt>
      <trkpt lat="43.76664" lon="3.55598">
        <ele>583.16153601849</ele>
        <time>2016-02-15T12:15:20Z</time>
      </trkpt>
      <trkpt lat="43.76665" lon="3.5567">
        <ele>583.3691344598</ele>
        <time>2016-02-15T12:16:02Z</time>
      </trkpt>
      <trkpt lat="43.76665" lon="3.55671">
        <ele>583.3691344598</ele>
        <time>2016-02-15T12:16:02Z</time>
      </trkpt>
      <trkpt lat="43.76665" lon="3.55676">
        <ele>583.3691344598</ele>
        <time>2016-02-15T12:16:09Z</time>
      </trkpt>
      <trkpt lat="43.76665" lon="3.557">
        <ele>583.41803832928</ele>
        <time>2016-02-15T12:16:23Z</time>
      </trkpt>
      <trkpt lat="43.76665" lon="3.55701">
        <ele>583.41803832928</ele>
        <time>2016-02-15T12:16:25Z</time>
      </trkpt>
      <trkpt lat="43.76659" lon="3.55698">
        <ele>583.41803832928</ele>
        <time>2016-02-15T12:16:36Z</time>
      </trkpt>
      <trkpt lat="43.76631" lon="3.55634">
        <ele>582.31089006849</ele>
        <time>2016-02-15T12:17:42Z</time>
      </trkpt>
      <trkpt lat="43.76624" lon="3.55593">
        <ele>580.95705295721</ele>
        <time>2016-02-15T12:18:12Z</time>
      </trkpt>
      <trkpt lat="43.76609" lon="3.55502">
        <ele>578.58572793096</ele>
        <time>2016-02-15T12:19:26Z</time>
      </trkpt>
      <trkpt lat="43.7661" lon="3.55492">
        <ele>578.58572793096</ele>
        <time>2016-02-15T12:19:26Z</time>
      </trkpt>
      <trkpt lat="43.76599" lon="3.55461">
        <ele>575.79698515467</ele>
        <time>2016-02-15T12:19:53Z</time>
      </trkpt>
      <trkpt lat="43.76598" lon="3.5546">
        <ele>575.79698515467</ele>
        <time>2016-02-15T12:20:00Z</time>
      </trkpt>
      <trkpt lat="43.76563" lon="3.55453">
        <ele>572.26886998188</ele>
        <time>2016-02-15T12:20:34Z</time>
      </trkpt>
      <trkpt lat="43.76562" lon="3.55454">
        <ele>572.26886998188</ele>
        <time>2016-02-15T12:20:39Z</time>
      </trkpt>
      <trkpt lat="43.76559" lon="3.55449">
        <ele>572.26886998188</ele>
        <time>2016-02-15T12:21:19Z</time>
      </trkpt>
      <trkpt lat="43.76566" lon="3.5544">
        <ele>567.66186075804</ele>
        <time>2016-02-15T12:21:29Z</time>
      </trkpt>
      <trkpt lat="43.76569" lon="3.55436">
        <ele>567.66186075804</ele>
        <time>2016-02-15T12:21:34Z</time>
      </trkpt>
      <trkpt lat="43.76568" lon="3.55438">
        <ele>567.66186075804</ele>
        <time>2016-02-15T12:21:44Z</time>
      </trkpt>
      <trkpt lat="43.76558" lon="3.55454">
        <ele>563.26395493551</ele>
        <time>2016-02-15T12:22:34Z</time>
      </trkpt>
      <trkpt lat="43.76553" lon="3.55462">
        <ele>563.26395493551</ele>
        <time>2016-02-15T12:22:39Z</time>
      </trkpt>
      <trkpt lat="43.76553" lon="3.55459">
        <ele>559.23023808209</ele>
        <time>2016-02-15T12:22:49Z</time>
      </trkpt>
      <trkpt lat="43.76559" lon="3.5545">
        <ele>555.48708034412</ele>
        <time>2016-02-15T12:23:09Z</time>
      </trkpt>
      <trkpt lat="43.76563" lon="3.55446">
        <ele>555.48708034412</ele>
        <time>2016-02-15T12:23:19Z</time>
      </trkpt>
      <trkpt lat="43.76561" lon="3.55448">
        <ele>555.48708034412</ele>
        <time>2016-02-15T12:23:24Z</time>
      </trkpt>
      <trkpt lat="43.76556" lon="3.55447">
        <ele>551.76353246825</ele>
        <time>2016-02-15T12:23:44Z</time>
      </trkpt>
      <trkpt lat="43.7655" lon="3.55441">
        <ele>551.76353246825</ele>
        <time>2016-02-15T12:24:00Z</time>
      </trkpt>
      <trkpt lat="43.76544" lon="3.55438">
        <ele>548.28388507508</ele>
        <time>2016-02-15T12:24:07Z</time>
      </trkpt>
      <trkpt lat="43.76541" lon="3.55432">
        <ele>548.28388507508</ele>
        <time>2016-02-15T12:24:14Z</time>
      </trkpt>
      <trkpt lat="43.76536" lon="3.5543">
        <ele>545.11096639433</ele>
        <time>2016-02-15T12:24:24Z</time>
      </trkpt>
      <trkpt lat="43.76519" lon="3.55431">
        <ele>542.24428255184</ele>
        <time>2016-02-15T12:24:42Z</time>
      </trkpt>
      <trkpt lat="43.76488" lon="3.55432">
        <ele>539.7111297797</ele>
        <time>2016-02-15T12:25:19Z</time>
      </trkpt>
      <trkpt lat="43.76464" lon="3.55446">
        <ele>537.44918355724</ele>
        <time>2016-02-15T12:25:39Z</time>
      </trkpt>
      <trkpt lat="43.76452" lon="3.55447">
        <ele>535.39972325158</ele>
        <time>2016-02-15T12:25:52Z</time>
      </trkpt>
      <trkpt lat="43.76452" lon="3.55447">
        <ele>535.39972325158</ele>
        <time>2016-02-15T12:26:00Z</time>
      </trkpt>
      <trkpt lat="43.76441" lon="3.55448">
        <ele>533.53635684636</ele>
        <time>2016-02-15T12:26:00Z</time>
      </trkpt>
      <trkpt lat="43.76424" lon="3.55431">
        <ele>530.34955419511</ele>
        <time>2016-02-15T12:27:34Z</time>
      </trkpt>
      <trkpt lat="43.76393" lon="3.55422">
        <ele>527.05259409782</ele>
        <time>2016-02-15T12:28:00Z</time>
      </trkpt>
      <trkpt lat="43.76368" lon="3.55425">
        <ele>523.89065248252</ele>
        <time>2016-02-15T12:28:17Z</time>
      </trkpt>
      <trkpt lat="43.76361" lon="3.5543">
        <ele>523.89065248252</ele>
        <time>2016-02-15T12:28:24Z</time>
      </trkpt>
      <trkpt lat="43.76357" lon="3.55428">
        <ele>521.04707544012</ele>
        <time>2016-02-15T12:28:24Z</time>
      </trkpt>
      <trkpt lat="43.76352" lon="3.55412">
        <ele>518.09978250346</ele>
        <time>2016-02-15T12:28:41Z</time>
      </trkpt>
      <trkpt lat="43.76333" lon="3.55403">
        <ele>514.71542471074</ele>
        <time>2016-02-15T12:29:05Z</time>
      </trkpt>
      <trkpt lat="43.76339" lon="3.55398">
        <ele>514.71542471074</ele>
        <time>2016-02-15T12:29:05Z</time>
      </trkpt>
      <trkpt lat="43.76343" lon="3.55395">
        <ele>510.74467816518</ele>
        <time>2016-02-15T12:29:07Z</time>
      </trkpt>
      <trkpt lat="43.76349" lon="3.55394">
        <ele>510.74467816518</ele>
        <time>2016-02-15T12:29:14Z</time>
      </trkpt>
      <trkpt lat="43.76358" lon="3.55401">
        <ele>505.79121823422</ele>
        <time>2016-02-15T12:29:37Z</time>
      </trkpt>
      <trkpt lat="43.76364" lon="3.55405">
        <ele>505.79121823422</ele>
        <time>2016-02-15T12:29:39Z</time>
      </trkpt>
      <trkpt lat="43.76371" lon="3.55415">
        <ele>500.72972621697</ele>
        <time>2016-02-15T12:29:55Z</time>
      </trkpt>
      <trkpt lat="43.76384" lon="3.55415">
        <ele>496.01042474383</ele>
        <time>2016-02-15T12:29:55Z</time>
      </trkpt>
      <trkpt lat="43.76375" lon="3.55426">
        <ele>491.53046357818</ele>
        <time>2016-02-15T12:30:47Z</time>
      </trkpt>
      <trkpt lat="43.76371" lon="3.55429">
        <ele>491.53046357818</ele>
        <time>2016-02-15T12:30:49Z</time>
      </trkpt>
      <trkpt lat="43.76371" lon="3.55425">
        <ele>491.53046357818</ele>
        <time>2016-02-15T12:30:54Z</time>
      </trkpt>
      <trkpt lat="43.7636" lon="3.5542">
        <ele>486.79011667515</ele>
        <time>2016-02-15T12:31:07Z</time>
      </trkpt>
      <trkpt lat="43.76309" lon="3.55395">
        <ele>480.83686272244</ele>
        <time>2016-02-15T12:32:10Z</time>
      </trkpt>
      <trkpt lat="43.763" lon="3.55395">
        <ele>475.44293588234</ele>
        <time>2016-02-15T12:32:31Z</time>
      </trkpt>
      <trkpt lat="43.76291" lon="3.55401">
        <ele>470.67772945673</ele>
        <time>2016-02-15T12:32:34Z</time>
      </trkpt>
      <trkpt lat="43.76272" lon="3.55426">
        <ele>466.4449752233</ele>
        <time>2016-02-15T12:32:53Z</time>
      </trkpt>
      <trkpt lat="43.7627" lon="3.55428">
        <ele>466.4449752233</ele>
        <time>2016-02-15T12:32:54Z</time>
      </trkpt>
      <trkpt lat="43.76259" lon="3.5543">
        <ele>462.62488078617</ele>
        <time>2016-02-15T12:33:08Z</time>
      </trkpt>
      <trkpt lat="43.76257" lon="3.5543">
        <ele>462.62488078617</ele>
        <time>2016-02-15T12:33:11Z</time>
      </trkpt>
      <trkpt lat="43.76241" lon="3.55439">
        <ele>458.87444063552</ele>
        <time>2016-02-15T12:33:34Z</time>
      </trkpt>
      <trkpt lat="43.76226" lon="3.55455">
        <ele>455.32212450633</ele>
        <time>2016-02-15T12:33:59Z</time>
      </trkpt>
      <trkpt lat="43.76197" lon="3.55481">
        <ele>451.4376458093</ele>
        <time>2016-02-15T12:34:42Z</time>
      </trkpt>
      <trkpt lat="43.76189" lon="3.55488">
        <ele>451.4376458093</ele>
        <time>2016-02-15T12:34:42Z</time>
      </trkpt>
      <trkpt lat="43.76183" lon="3.55491">
        <ele>447.84000700294</ele>
        <time>2016-02-15T12:34:51Z</time>
      </trkpt>
      <trkpt lat="43.76182" lon="3.55492">
        <ele>447.84000700294</ele>
        <time>2016-02-15T12:34:51Z</time>
      </trkpt>
      <trkpt lat="43.76181" lon="3.55494">
        <ele>447.84000700294</ele>
        <time>2016-02-15T12:34:54Z</time>
      </trkpt>
      <trkpt lat="43.76162" lon="3.55524">
        <ele>444.12173437383</ele>
        <time>2016-02-15T12:35:31Z</time>
      </trkpt>
      <trkpt lat="43.76153" lon="3.55534">
        <ele>440.30890219048</ele>
        <time>2016-02-15T12:35:31Z</time>
      </trkpt>
      <trkpt lat="43.76146" lon="3.55536">
        <ele>440.30890219048</ele>
        <time>2016-02-15T12:35:44Z</time>
      </trkpt>
      <trkpt lat="43.76146" lon="3.55537">
        <ele>440.30890219048</ele>
        <time>2016-02-15T12:35:46Z</time>
      </trkpt>
      <trkpt lat="43.76136" lon="3.55545">
        <ele>435.93573023415</ele>
        <time>2016-02-15T12:36:07Z</time>
      </trkpt>
      <trkpt lat="43.76132" lon="3.55553">
        <ele>435.93573023415</ele>
        <time>2016-02-15T12:36:15Z</time>
      </trkpt>
      <trkpt lat="43.76082" lon="3.55586">
        <ele>430.816994909</ele>
        <time>2016-02-15T12:37:00Z</time>
      </trkpt>
      <trkpt lat="43.76081" lon="3.55587">
        <ele>430.816994909</ele>
        <time>2016-02-15T12:37:00Z</time>
      </trkpt>
      <trkpt lat="43.76068" lon="3.55598">
        <ele>425.93584391012</ele>
        <time>2016-02-15T12:37:22Z</time>
      </trkpt>
      <trkpt lat="43.76061" lon="3.55604">
        <ele>425.93584391012</ele>
        <time>2016-02-15T12:37:22Z</time>
      </trkpt>
      <trkpt lat="43.76036" lon="3.55661">
        <ele>420.17035403105</ele>
        <time>2016-02-15T12:38:09Z</time>
      </trkpt>
      <trkpt lat="43.76037" lon="3.55689">
        <ele>414.57289375285</ele>
        <time>2016-02-15T12:38:29Z</time>
      </trkpt>
      <trkpt lat="43.76035" lon="3.55712">
        <ele>409.33963435475</ele>
        <time>2016-02-15T12:38:50Z</time>
      </trkpt>
      <trkpt lat="43.76037" lon="3.55718">
        <ele>409.33963435475</ele>
        <time>2016-02-15T12:38:50Z</time>
      </trkpt>
      <trkpt lat="43.76038" lon="3.55726">
        <ele>404.62227234172</ele>
        <time>2016-02-15T12:38:54Z</time>
      </trkpt>
      <trkpt lat="43.7604" lon="3.55737">
        <ele>404.62227234172</ele>
        <time>2016-02-15T12:39:02Z</time>
      </trkpt>
      <trkpt lat="43.76041" lon="3.55739">
        <ele>400.2570606141</ele>
        <time>2016-02-15T12:39:09Z</time>
      </trkpt>
      <trkpt lat="43.76028" lon="3.5585">
        <ele>392.89180438291</ele>
        <time>2016-02-15T12:40:32Z</time>
      </trkpt>
      <trkpt lat="43.76004" lon="3.55937">
        <ele>384.53028578267</ele>
        <time>2016-02-15T12:41:43Z</time>
      </trkpt>
      <trkpt lat="43.76003" lon="3.55941">
        <ele>384.53028578267</ele>
        <time>2016-02-15T12:41:44Z</time>
      </trkpt>
      <trkpt lat="43.75967" lon="3.56029">
        <ele>374.869981506</ele>
        <time>2016-02-15T12:43:00Z</time>
      </trkpt>
      <trkpt lat="43.75967" lon="3.5603">
        <ele>374.869981506</ele>
        <time>2016-02-15T12:43:00Z</time>
      </trkpt>
      <trkpt lat="43.75925" lon="3.56122">
        <ele>365.44978084824</ele>
        <time>2016-02-15T12:44:16Z</time>
      </trkpt>
      <trkpt lat="43.75918" lon="3.56133">
        <ele>356.91637520065</ele>
        <time>2016-02-15T12:44:16Z</time>
      </trkpt>
      <trkpt lat="43.75894" lon="3.56186">
        <ele>348.33858306841</ele>
        <time>2016-02-15T12:45:06Z</time>
      </trkpt>
      <trkpt lat="43.75892" lon="3.56189">
        <ele>348.33858306841</ele>
        <time>2016-02-15T12:45:08Z</time>
      </trkpt>
      <trkpt lat="43.75831" lon="3.56185">
        <ele>339.05518478105</ele>
        <time>2016-02-15T12:46:59Z</time>
      </trkpt>
      <trkpt lat="43.7583" lon="3.56142">
        <ele>330.73213115828</ele>
        <time>2016-02-15T12:47:42Z</time>
      </trkpt>
      <trkpt lat="43.75809" lon="3.56059">
        <ele>323.31031593445</ele>
        <time>2016-02-15T12:48:42Z</time>
      </trkpt>
      <trkpt lat="43.75807" lon="3.56051">
        <ele>323.31031593445</ele>
        <time>2016-02-15T12:48:43Z</time>
      </trkpt>
      <trkpt lat="43.75778" lon="3.55982">
        <ele>316.9050249157</ele>
        <time>2016-02-15T12:49:41Z</time>
      </trkpt>
      <trkpt lat="43.75736" lon="3.559">
        <ele>311.67751492477</ele>
        <time>2016-02-15T12:50:50Z</time>
      </trkpt>
      <trkpt lat="43.7573" lon="3.55884">
        <ele>307.26916200425</ele>
        <time>2016-02-15T12:50:59Z</time>
      </trkpt>
      <trkpt lat="43.75727" lon="3.55877">
        <ele>307.26916200425</ele>
        <time>2016-02-15T12:51:24Z</time>
      </trkpt>
      <trkpt lat="43.75707" lon="3.55832">
        <ele>303.84945559796</ele>
        <time>2016-02-15T12:51:49Z</time>
      </trkpt>
      <trkpt lat="43.7571" lon="3.55803">
        <ele>301.28414425864</ele>
        <time>2016-02-15T12:52:14Z</time>
      </trkpt>
      <trkpt lat="43.75713" lon="3.55781">
        <ele>299.47500348908</ele>
        <time>2016-02-15T12:52:31Z</time>
      </trkpt>
      <trkpt lat="43.75712" lon="3.55767">
        <ele>298.2854483413</ele>
        <time>2016-02-15T12:52:31Z</time>
      </trkpt>
      <trkpt lat="43.75704" lon="3.5571">
        <ele>297.90405611241</ele>
        <time>2016-02-15T12:53:17Z</time>
      </trkpt>
      <trkpt lat="43.75691" lon="3.55651">
        <ele>298.25816473089</ele>
        <time>2016-02-15T12:54:03Z</time>
      </trkpt>
      <trkpt lat="43.75691" lon="3.55651">
        <ele>298.25816473089</ele>
        <time>2016-02-15T12:54:04Z</time>
      </trkpt>
      <trkpt lat="43.75692" lon="3.55632">
        <ele>299.04772785715</ele>
        <time>2016-02-15T12:54:15Z</time>
      </trkpt>
      <trkpt lat="43.75696" lon="3.55611">
        <ele>300.10877805695</ele>
        <time>2016-02-15T12:54:30Z</time>
      </trkpt>
      <trkpt lat="43.75694" lon="3.55609">
        <ele>300.10877805695</ele>
        <time>2016-02-15T12:54:30Z</time>
      </trkpt>
      <trkpt lat="43.75696" lon="3.55574">
        <ele>301.24541949622</ele>
        <time>2016-02-15T12:54:54Z</time>
      </trkpt>
      <trkpt lat="43.75698" lon="3.55555">
        <ele>302.52099533861</ele>
        <time>2016-02-15T12:55:20Z</time>
      </trkpt>
      <trkpt lat="43.75694" lon="3.55543">
        <ele>303.92186966342</ele>
        <time>2016-02-15T12:55:24Z</time>
      </trkpt>
      <trkpt lat="43.75691" lon="3.55522">
        <ele>305.36316533005</ele>
        <time>2016-02-15T12:55:39Z</time>
      </trkpt>
      <trkpt lat="43.75679" lon="3.55503">
        <ele>306.60780993291</ele>
        <time>2016-02-15T12:56:07Z</time>
      </trkpt>
      <trkpt lat="43.75675" lon="3.55495">
        <ele>306.60780993291</ele>
        <time>2016-02-15T12:56:07Z</time>
      </trkpt>
      <trkpt lat="43.75676" lon="3.55489">
        <ele>307.78280770737</ele>
        <time>2016-02-15T12:57:13Z</time>
      </trkpt>
      <trkpt lat="43.75684" lon="3.55446">
        <ele>308.7757271355</ele>
        <time>2016-02-15T12:57:40Z</time>
      </trkpt>
      <trkpt lat="43.75685" lon="3.5543">
        <ele>309.90113495554</ele>
        <time>2016-02-15T12:58:00Z</time>
      </trkpt>
      <trkpt lat="43.75688" lon="3.55417">
        <ele>310.96047195512</ele>
        <time>2016-02-15T12:58:00Z</time>
      </trkpt>
      <trkpt lat="43.75688" lon="3.5539">
        <ele>311.98647099575</ele>
        <time>2016-02-15T12:58:18Z</time>
      </trkpt>
      <trkpt lat="43.75688" lon="3.55386">
        <ele>311.98647099575</ele>
        <time>2016-02-15T12:58:19Z</time>
      </trkpt>
      <trkpt lat="43.75682" lon="3.55353">
        <ele>313.06757183274</ele>
        <time>2016-02-15T12:58:54Z</time>
      </trkpt>
      <trkpt lat="43.75659" lon="3.55349">
        <ele>314.32918696283</ele>
        <time>2016-02-15T12:59:12Z</time>
      </trkpt>
      <trkpt lat="43.75659" lon="3.5535">
        <ele>314.32918696283</ele>
        <time>2016-02-15T12:59:20Z</time>
      </trkpt>
      <trkpt lat="43.75648" lon="3.55351">
        <ele>315.68565995064</ele>
        <time>2016-02-15T12:59:20Z</time>
      </trkpt>
      <trkpt lat="43.75636" lon="3.55348">
        <ele>317.12983539779</ele>
        <time>2016-02-15T12:59:30Z</time>
      </trkpt>
      <trkpt lat="43.75577" lon="3.5535">
        <ele>318.85702482996</ele>
        <time>2016-02-15T13:00:41Z</time>
      </trkpt>
      <trkpt lat="43.75577" lon="3.5535">
        <ele>318.85702482996</ele>
        <time>2016-02-15T13:00:44Z</time>
      </trkpt>
      <trkpt lat="43.75566" lon="3.55362">
        <ele>320.84608602317</ele>
        <time>2016-02-15T13:01:09Z</time>
      </trkpt>
      <trkpt lat="43.75559" lon="3.5537">
        <ele>320.84608602317</ele>
        <time>2016-02-15T13:01:09Z</time>
      </trkpt>
      <trkpt lat="43.75546" lon="3.55373">
        <ele>323.07714954677</ele>
        <time>2016-02-15T13:01:27Z</time>
      </trkpt>
      <trkpt lat="43.75545" lon="3.55375">
        <ele>323.07714954677</ele>
        <time>2016-02-15T13:01:34Z</time>
      </trkpt>
      <trkpt lat="43.7554" lon="3.55376">
        <ele>323.07714954677</ele>
        <time>2016-02-15T13:01:34Z</time>
      </trkpt>
      <trkpt lat="43.75507" lon="3.5538">
        <ele>325.54600289845</ele>
        <time>2016-02-15T13:02:19Z</time>
      </trkpt>
      <trkpt lat="43.75465" lon="3.55382">
        <ele>327.65769492315</ele>
        <time>2016-02-15T13:02:54Z</time>
      </trkpt>
      <trkpt lat="43.75401" lon="3.55363">
        <ele>329.35244149246</ele>
        <time>2016-02-15T13:04:00Z</time>
      </trkpt>
      <trkpt lat="43.75384" lon="3.55349">
        <ele>330.23063904507</ele>
        <time>2016-02-15T13:04:20Z</time>
      </trkpt>
      <trkpt lat="43.7538" lon="3.5534">
        <ele>330.23063904507</ele>
        <time>2016-02-15T13:04:23Z</time>
      </trkpt>
      <trkpt lat="43.7537" lon="3.55331">
        <ele>330.61654763152</ele>
        <time>2016-02-15T13:04:42Z</time>
      </trkpt>
      <trkpt lat="43.75322" lon="3.55215">
        <ele>328.86696229079</ele>
        <time>2016-02-15T13:06:29Z</time>
      </trkpt>
      <trkpt lat="43.75319" lon="3.55213">
        <ele>328.86696229079</ele>
        <time>2016-02-15T13:06:32Z</time>
      </trkpt>
      <trkpt lat="43.75305" lon="3.55211">
        <ele>326.9677366076</ele>
        <time>2016-02-15T13:06:44Z</time>
      </trkpt>
      <trkpt lat="43.75288" lon="3.55207">
        <ele>324.90066380317</ele>
        <time>2016-02-15T13:07:11Z</time>
      </trkpt>
      <trkpt lat="43.75256" lon="3.55229">
        <ele>322.92356129649</ele>
        <time>2016-02-15T13:08:00Z</time>
      </trkpt>
      <trkpt lat="43.7524" lon="3.55234">
        <ele>320.97279493229</ele>
        <time>2016-02-15T13:08:12Z</time>
      </trkpt>
      <trkpt lat="43.75238" lon="3.55235">
        <ele>320.97279493229</ele>
        <time>2016-02-15T13:08:15Z</time>
      </trkpt>
      <trkpt lat="43.75236" lon="3.55235">
        <ele>320.97279493229</ele>
        <time>2016-02-15T13:08:21Z</time>
      </trkpt>
      <trkpt lat="43.75113" lon="3.5523">
        <ele>318.3988173816</ele>
        <time>2016-02-15T13:10:51Z</time>
      </trkpt>
      <trkpt lat="43.7511" lon="3.55228">
        <ele>318.3988173816</ele>
        <time>2016-02-15T13:10:56Z</time>
      </trkpt>
      <trkpt lat="43.75089" lon="3.55143">
        <ele>314.94772131647</ele>
        <time>2016-02-15T13:12:39Z</time>
      </trkpt>
      <trkpt lat="43.7507" lon="3.55115">
        <ele>311.53987765483</ele>
        <time>2016-02-15T13:14:03Z</time>
      </trkpt>
      <trkpt lat="43.7507" lon="3.55112">
        <ele>311.53987765483</ele>
        <time>2016-02-15T13:14:03Z</time>
      </trkpt>
      <trkpt lat="43.7507" lon="3.5511">
        <ele>311.53987765483</ele>
        <time>2016-02-15T13:14:59Z</time>
      </trkpt>
      <trkpt lat="43.75059" lon="3.55088">
        <ele>308.33643492566</ele>
        <time>2016-02-15T13:15:42Z</time>
      </trkpt>
      <trkpt lat="43.75056" lon="3.55085">
        <ele>308.33643492566</ele>
        <time>2016-02-15T13:15:42Z</time>
      </trkpt>
      <trkpt lat="43.75031" lon="3.55059">
        <ele>305.41428336102</ele>
        <time>2016-02-15T13:17:36Z</time>
      </trkpt>
      <trkpt lat="43.7503" lon="3.55046">
        <ele>302.69994129922</ele>
        <time>2016-02-15T13:22:25Z</time>
      </trkpt>
      <trkpt lat="43.75022" lon="3.55041">
        <ele>299.64932262698</ele>
        <time>2016-02-15T13:23:14Z</time>
      </trkpt>
      <trkpt lat="43.7502" lon="3.55036">
        <ele>299.64932262698</ele>
        <time>2016-02-15T13:23:19Z</time>
      </trkpt>
      <trkpt lat="43.75016" lon="3.55035">
        <ele>299.64932262698</ele>
        <time>2016-02-15T13:23:31Z</time>
      </trkpt>
      <trkpt lat="43.75005" lon="3.55025">
        <ele>296.62404067585</ele>
        <time>2016-02-15T13:24:43Z</time>
      </trkpt>
      <trkpt lat="43.75003" lon="3.55023">
        <ele>296.62404067585</ele>
        <time>2016-02-15T13:24:44Z</time>
      </trkpt>
      <trkpt lat="43.75003" lon="3.55023">
        <ele>296.62404067585</ele>
        <time>2016-02-15T13:24:46Z</time>
      </trkpt>
      <trkpt lat="43.74992" lon="3.55002">
        <ele>293.88711476049</ele>
        <time>2016-02-15T13:25:39Z</time>
      </trkpt>
      <trkpt lat="43.75" lon="3.5496">
        <ele>291.29240798444</ele>
        <time>2016-02-15T13:26:25Z</time>
      </trkpt>
      <trkpt lat="43.74998" lon="3.54948">
        <ele>291.29240798444</ele>
        <time>2016-02-15T13:26:25Z</time>
      </trkpt>
      <trkpt lat="43.74963" lon="3.54962">
        <ele>289.07886284268</ele>
        <time>2016-02-15T13:27:04Z</time>
      </trkpt>
      <trkpt lat="43.74954" lon="3.54967">
        <ele>287.09214839533</ele>
        <time>2016-02-15T13:27:06Z</time>
      </trkpt>
      <trkpt lat="43.74946" lon="3.5496">
        <ele>285.36159190254</ele>
        <time>2016-02-15T13:27:19Z</time>
      </trkpt>
      <trkpt lat="43.74942" lon="3.5496">
        <ele>285.36159190254</ele>
        <time>2016-02-15T13:27:23Z</time>
      </trkpt>
      <trkpt lat="43.74934" lon="3.54952">
        <ele>283.98571726291</ele>
        <time>2016-02-15T13:27:37Z</time>
      </trkpt>
      <trkpt lat="43.74934" lon="3.5495">
        <ele>283.98571726291</ele>
        <time>2016-02-15T13:27:39Z</time>
      </trkpt>
      <trkpt lat="43.74922" lon="3.54929">
        <ele>282.88188961698</ele>
        <time>2016-02-15T13:28:00Z</time>
      </trkpt>
      <trkpt lat="43.7492" lon="3.54926">
        <ele>282.88188961698</ele>
        <time>2016-02-15T13:28:00Z</time>
      </trkpt>
      <trkpt lat="43.74901" lon="3.54902">
        <ele>282.2754182289</ele>
        <time>2016-02-15T13:28:48Z</time>
      </trkpt>
      <trkpt lat="43.74875" lon="3.5489">
        <ele>282.09985806263</ele>
        <time>2016-02-15T13:29:21Z</time>
      </trkpt>
      <trkpt lat="43.74868" lon="3.54888">
        <ele>282.09985806263</ele>
        <time>2016-02-15T13:29:21Z</time>
      </trkpt>
      <trkpt lat="43.74865" lon="3.54886">
        <ele>282.33567589557</ele>
        <time>2016-02-15T13:29:37Z</time>
      </trkpt>
      <trkpt lat="43.74856" lon="3.54886">
        <ele>282.76187594624</ele>
        <time>2016-02-15T13:29:59Z</time>
      </trkpt>
      <trkpt lat="43.74785" lon="3.54886">
        <ele>284.3404853159</ele>
        <time>2016-02-15T13:30:46Z</time>
      </trkpt>
      <trkpt lat="43.74784" lon="3.54886">
        <ele>284.3404853159</ele>
        <time>2016-02-15T13:30:53Z</time>
      </trkpt>
      <trkpt lat="43.74726" lon="3.54889">
        <ele>286.60501941736</ele>
        <time>2016-02-15T13:31:35Z</time>
      </trkpt>
      <trkpt lat="43.74657" lon="3.54908">
        <ele>287.70909859543</ele>
        <time>2016-02-15T13:32:50Z</time>
      </trkpt>
      <trkpt lat="43.74651" lon="3.5491">
        <ele>287.70909859543</ele>
        <time>2016-02-15T13:32:51Z</time>
      </trkpt>
      <trkpt lat="43.74621" lon="3.54893">
        <ele>288.12137684795</ele>
        <time>2016-02-15T13:33:28Z</time>
      </trkpt>
      <trkpt lat="43.74617" lon="3.54889">
        <ele>288.12137684795</ele>
        <time>2016-02-15T13:33:33Z</time>
      </trkpt>
      <trkpt lat="43.74566" lon="3.54872">
        <ele>287.24049788585</ele>
        <time>2016-02-15T13:34:52Z</time>
      </trkpt>
      <trkpt lat="43.74543" lon="3.54869">
        <ele>286.41525754032</ele>
        <time>2016-02-15T13:35:00Z</time>
      </trkpt>
      <trkpt lat="43.7453" lon="3.54854">
        <ele>285.58388304746</ele>
        <time>2016-02-15T13:35:24Z</time>
      </trkpt>
      <trkpt lat="43.74527" lon="3.54847">
        <ele>285.58388304746</ele>
        <time>2016-02-15T13:35:25Z</time>
      </trkpt>
      <trkpt lat="43.74523" lon="3.54841">
        <ele>284.61717718639</ele>
        <time>2016-02-15T13:35:34Z</time>
      </trkpt>
      <trkpt lat="43.74522" lon="3.54829">
        <ele>283.68410521659</ele>
        <time>2016-02-15T13:35:55Z</time>
      </trkpt>
      <trkpt lat="43.74526" lon="3.54751">
        <ele>281.77388728765</ele>
        <time>2016-02-15T13:37:00Z</time>
      </trkpt>
      <trkpt lat="43.74524" lon="3.54742">
        <ele>281.77388728765</ele>
        <time>2016-02-15T13:37:00Z</time>
      </trkpt>
      <trkpt lat="43.74521" lon="3.54718">
        <ele>279.4803664359</ele>
        <time>2016-02-15T13:37:27Z</time>
      </trkpt>
      <trkpt lat="43.74497" lon="3.54657">
        <ele>276.20198682343</ele>
        <time>2016-02-15T13:38:38Z</time>
      </trkpt>
      <trkpt lat="43.74481" lon="3.54645">
        <ele>273.07026821071</ele>
        <time>2016-02-15T13:39:08Z</time>
      </trkpt>
      <trkpt lat="43.74462" lon="3.54663">
        <ele>270.22530140658</ele>
        <time>2016-02-15T13:39:34Z</time>
      </trkpt>
      <trkpt lat="43.74424" lon="3.54699">
        <ele>268.18516797658</ele>
        <time>2016-02-15T13:40:32Z</time>
      </trkpt>
      <trkpt lat="43.7436" lon="3.54652">
        <ele>267.74465151538</ele>
        <time>2016-02-15T13:42:00Z</time>
      </trkpt>
      <trkpt lat="43.74355" lon="3.54652">
        <ele>267.74465151538</ele>
        <time>2016-02-15T13:42:00Z</time>
      </trkpt>
      <trkpt lat="43.74282" lon="3.54626">
        <ele>267.94953041883</ele>
        <time>2016-02-15T13:43:20Z</time>
      </trkpt>
      <trkpt lat="43.74278" lon="3.54626">
        <ele>267.94953041883</ele>
        <time>2016-02-15T13:43:20Z</time>
      </trkpt>
      <trkpt lat="43.74262" lon="3.54622">
        <ele>268.15882595799</ele>
        <time>2016-02-15T13:43:34Z</time>
      </trkpt>
      <trkpt lat="43.74246" lon="3.54619">
        <ele>268.49916319064</ele>
        <time>2016-02-15T13:43:55Z</time>
      </trkpt>
      <trkpt lat="43.74192" lon="3.54589">
        <ele>268.91454870184</ele>
        <time>2016-02-15T13:44:43Z</time>
      </trkpt>
      <trkpt lat="43.74191" lon="3.54586">
        <ele>268.91454870184</ele>
        <time>2016-02-15T13:44:43Z</time>
      </trkpt>
      <trkpt lat="43.74178" lon="3.54571">
        <ele>269.52582033147</ele>
        <time>2016-02-15T13:45:06Z</time>
      </trkpt>
      <trkpt lat="43.74173" lon="3.54563">
        <ele>269.52582033147</ele>
        <time>2016-02-15T13:45:06Z</time>
      </trkpt>
      <trkpt lat="43.74156" lon="3.54468">
        <ele>269.23386017884</ele>
        <time>2016-02-15T13:46:27Z</time>
      </trkpt>
      <trkpt lat="43.74153" lon="3.54456">
        <ele>268.89628198862</ele>
        <time>2016-02-15T13:46:27Z</time>
      </trkpt>
      <trkpt lat="43.74148" lon="3.54445">
        <ele>268.63052319203</ele>
        <time>2016-02-15T13:46:53Z</time>
      </trkpt>
      <trkpt lat="43.74143" lon="3.54417">
        <ele>268.19934764025</ele>
        <time>2016-02-15T13:47:00Z</time>
      </trkpt>
      <trkpt lat="43.74142" lon="3.54408">
        <ele>268.19934764025</ele>
        <time>2016-02-15T13:47:00Z</time>
      </trkpt>
      <trkpt lat="43.74142" lon="3.54402">
        <ele>267.80135632459</ele>
        <time>2016-02-15T13:47:18Z</time>
      </trkpt>
      <trkpt lat="43.74139" lon="3.54386">
        <ele>267.41873738918</ele>
        <time>2016-02-15T13:47:18Z</time>
      </trkpt>
      <trkpt lat="43.74139" lon="3.54365">
        <ele>266.99173703462</ele>
        <time>2016-02-15T13:47:31Z</time>
      </trkpt>
      <trkpt lat="43.74118" lon="3.54325">
        <ele>265.78781843583</ele>
        <time>2016-02-15T13:48:44Z</time>
      </trkpt>
      <trkpt lat="43.74117" lon="3.54329">
        <ele>265.78781843583</ele>
        <time>2016-02-15T13:48:44Z</time>
      </trkpt>
      <trkpt lat="43.74109" lon="3.54343">
        <ele>264.08159258198</ele>
        <time>2016-02-15T13:49:08Z</time>
      </trkpt>
      <trkpt lat="43.74106" lon="3.54353">
        <ele>264.08159258198</ele>
        <time>2016-02-15T13:49:08Z</time>
      </trkpt>
      <trkpt lat="43.74069" lon="3.54437">
        <ele>260.0248978261</ele>
        <time>2016-02-15T13:50:20Z</time>
      </trkpt>
      <trkpt lat="43.74029" lon="3.54468">
        <ele>255.88939921247</ele>
        <time>2016-02-15T13:51:14Z</time>
      </trkpt>
      <trkpt lat="43.74019" lon="3.54513">
        <ele>251.71929771695</ele>
        <time>2016-02-15T13:51:29Z</time>
      </trkpt>
      <trkpt lat="43.74017" lon="3.5454">
        <ele>247.44031088569</ele>
        <time>2016-02-15T13:51:56Z</time>
      </trkpt>
      <trkpt lat="43.74015" lon="3.54551">
        <ele>247.44031088569</ele>
        <time>2016-02-15T13:51:56Z</time>
      </trkpt>
      <trkpt lat="43.73982" lon="3.54624">
        <ele>242.39299086536</ele>
        <time>2016-02-15T13:53:00Z</time>
      </trkpt>
      <trkpt lat="43.73976" lon="3.54631">
        <ele>242.39299086536</ele>
        <time>2016-02-15T13:53:00Z</time>
      </trkpt>
      <trkpt lat="43.73974" lon="3.54634">
        <ele>237.78419113347</ele>
        <time>2016-02-15T13:53:02Z</time>
      </trkpt>
      <trkpt lat="43.73938" lon="3.54686">
        <ele>233.23200217657</ele>
        <time>2016-02-15T13:54:00Z</time>
      </trkpt>
      <trkpt lat="43.73931" lon="3.54692">
        <ele>233.23200217657</ele>
        <time>2016-02-15T13:54:00Z</time>
      </trkpt>
      <trkpt lat="43.73922" lon="3.54708">
        <ele>228.92988847729</ele>
        <time>2016-02-15T13:54:14Z</time>
      </trkpt>
      <trkpt lat="43.73893" lon="3.54754">
        <ele>224.95535937088</ele>
        <time>2016-02-15T13:55:10Z</time>
      </trkpt>
      <trkpt lat="43.73885" lon="3.54765">
        <ele>221.27825423753</ele>
        <time>2016-02-15T13:55:10Z</time>
      </trkpt>
      <trkpt lat="43.73872" lon="3.54785">
        <ele>217.84078047814</ele>
        <time>2016-02-15T13:55:29Z</time>
      </trkpt>
      <trkpt lat="43.73858" lon="3.54803">
        <ele>214.60293096484</ele>
        <time>2016-02-15T13:55:47Z</time>
      </trkpt>
      <trkpt lat="43.73856" lon="3.54808">
        <ele>214.60293096484</ele>
        <time>2016-02-15T13:55:49Z</time>
      </trkpt>
      <trkpt lat="43.73856" lon="3.54809">
        <ele>214.60293096484</ele>
        <time>2016-02-15T13:56:16Z</time>
      </trkpt>
      <trkpt lat="43.73835" lon="3.54841">
        <ele>211.91597489869</ele>
        <time>2016-02-15T13:58:33Z</time>
      </trkpt>
      <trkpt lat="43.73822" lon="3.54867">
        <ele>209.39748393964</ele>
        <time>2016-02-15T13:58:56Z</time>
      </trkpt>
      <trkpt lat="43.73809" lon="3.54887">
        <ele>207.12478275068</ele>
        <time>2016-02-15T13:58:56Z</time>
      </trkpt>
      <trkpt lat="43.73795" lon="3.54897">
        <ele>205.03893064552</ele>
        <time>2016-02-15T13:59:12Z</time>
      </trkpt>
      <trkpt lat="43.73792" lon="3.5488">
        <ele>203.04137108959</ele>
        <time>2016-02-15T13:59:27Z</time>
      </trkpt>
      <trkpt lat="43.73791" lon="3.54877">
        <ele>203.04137108959</ele>
        <time>2016-02-15T13:59:29Z</time>
      </trkpt>
      <trkpt lat="43.73773" lon="3.54894">
        <ele>200.86742668325</ele>
        <time>2016-02-15T13:59:56Z</time>
      </trkpt>
      <trkpt lat="43.73763" lon="3.54902">
        <ele>198.7045206707</ele>
        <time>2016-02-15T13:59:56Z</time>
      </trkpt>
      <trkpt lat="43.73763" lon="3.54892">
        <ele>198.7045206707</ele>
        <time>2016-02-15T14:00:12Z</time>
      </trkpt>
      <trkpt lat="43.73765" lon="3.54882">
        <ele>196.509948695</ele>
        <time>2016-02-15T14:00:12Z</time>
      </trkpt>
      <trkpt lat="43.73784" lon="3.54769">
        <ele>192.03917397389</ele>
        <time>2016-02-15T14:01:27Z</time>
      </trkpt>
      <trkpt lat="43.73773" lon="3.54752">
        <ele>187.28270568839</ele>
        <time>2016-02-15T14:01:48Z</time>
      </trkpt>
      <trkpt lat="43.73775" lon="3.54759">
        <ele>187.28270568839</ele>
        <time>2016-02-15T14:01:50Z</time>
      </trkpt>
      <trkpt lat="43.73724" lon="3.54836">
        <ele>180.1656443467</ele>
        <time>2016-02-15T14:03:24Z</time>
      </trkpt>
      <trkpt lat="43.73719" lon="3.5484">
        <ele>180.1656443467</ele>
        <time>2016-02-15T14:03:24Z</time>
      </trkpt>
      <trkpt lat="43.73703" lon="3.54865">
        <ele>172.85029913636</ele>
        <time>2016-02-15T14:03:51Z</time>
      </trkpt>
      <trkpt lat="43.73702" lon="3.5487">
        <ele>172.85029913636</ele>
        <time>2016-02-15T14:03:57Z</time>
      </trkpt>
      <trkpt lat="43.737" lon="3.54873">
        <ele>172.85029913636</ele>
        <time>2016-02-15T14:04:07Z</time>
      </trkpt>
      <trkpt lat="43.73568" lon="3.5488">
        <ele>163.19008479338</ele>
        <time>2016-02-15T14:06:05Z</time>
      </trkpt>
      <trkpt lat="43.73568" lon="3.54878">
        <ele>163.19008479338</ele>
        <time>2016-02-15T14:06:05Z</time>
      </trkpt>
      <trkpt lat="43.73586" lon="3.54834">
        <ele>153.06461957966</ele>
        <time>2016-02-15T14:07:24Z</time>
      </trkpt>
      <trkpt lat="43.73554" lon="3.54836">
        <ele>143.53914984994</ele>
        <time>2016-02-15T14:07:52Z</time>
      </trkpt>
      <trkpt lat="43.73535" lon="3.54824">
        <ele>134.60430186948</ele>
        <time>2016-02-15T14:08:14Z</time>
      </trkpt>
      <trkpt lat="43.73515" lon="3.54795">
        <ele>125.97556868344</ele>
        <time>2016-02-15T14:08:42Z</time>
      </trkpt>
      <trkpt lat="43.73517" lon="3.54793">
        <ele>125.97556868344</ele>
        <time>2016-02-15T14:08:42Z</time>
      </trkpt>
      <trkpt lat="43.73517" lon="3.54785">
        <ele>125.97556868344</ele>
        <time>2016-02-15T14:09:25Z</time>
      </trkpt>
      <trkpt lat="43.73515" lon="3.54768">
        <ele>116.95576620718</ele>
        <time>2016-02-15T14:09:25Z</time>
      </trkpt>
      <trkpt lat="43.73508" lon="3.54765">
        <ele>116.95576620718</ele>
        <time>2016-02-15T14:09:42Z</time>
      </trkpt>
      <trkpt lat="43.735" lon="3.54762">
        <ele>108.75864776917</ele>
        <time>2016-02-15T14:09:42Z</time>
      </trkpt>
      <trkpt lat="43.73455" lon="3.54773">
        <ele>101.42523747475</ele>
        <time>2016-02-15T14:10:19Z</time>
      </trkpt>
      <trkpt lat="43.73445" lon="3.5478">
        <ele>94.860985708671</ele>
        <time>2016-02-15T14:10:24Z</time>
      </trkpt>
    </trkseg>
  </trk>
</gpx>